<?xml version="1.0" encoding="UTF-8"?>
<gpx version="1.1" creator="2bulu-scraper" xmlns="http://www.topografix.com/GPX/1/1">
  <metadata><name>:04泸县玉蟾山采蘑菇亲子徒步环线</name><desc>source: 2bulu.com trackId=81282302; exported 2026-09-01T14:49:44.785Z</desc>
    <bounds minlat="29.142597" minlon="105.387219" maxlat="29.151133" maxlon="105.399308"/>
    <link href="https://www.2bulu.com/track/t-7nYo0qRKgAHp%252FR2KBg5Tzw%253D%253D.htm"><text>2bulu 源页面</text></link>
  </metadata>
  <wpt lat="29.146047" lon="105.397355"><ele>405</ele><name></name></wpt>
  <wpt lat="29.146097" lon="105.397253"><ele>407</ele><name></name></wpt>
  <wpt lat="29.14611" lon="105.397136"><ele>406</ele><name></name></wpt>
  <wpt lat="29.146" lon="105.397028"><ele>405</ele><name></name></wpt>
  <wpt lat="29.145898" lon="105.396029"><ele>409</ele><name></name></wpt>
  <wpt lat="29.145898" lon="105.396029"><ele>409</ele><name>农户</name></wpt>
  <wpt lat="29.145388" lon="105.395447"><ele>412</ele><name></name></wpt>
  <wpt lat="29.145852" lon="105.394957"><ele>429</ele><name></name></wpt>
  <wpt lat="29.145852" lon="105.394957"><ele>429</ele><name></name></wpt>
  <wpt lat="29.146134" lon="105.394106"><ele>443</ele><name></name></wpt>
  <wpt lat="29.145696" lon="105.393798"><ele>446</ele><name>分路</name></wpt>
  <wpt lat="29.145794" lon="105.393666"><ele>450</ele><name></name></wpt>
  <wpt lat="29.146482" lon="105.392917"><ele>444</ele><name></name></wpt>
  <wpt lat="29.146177" lon="105.392116"><ele>440</ele><name></name></wpt>
  <wpt lat="29.1455" lon="105.391112"><ele>450</ele><name></name></wpt>
  <wpt lat="29.145607" lon="105.391007"><ele>448</ele><name></name></wpt>
  <wpt lat="29.145471" lon="105.390542"><ele>438</ele><name></name></wpt>
  <wpt lat="29.145454" lon="105.390485"><ele>439</ele><name></name></wpt>
  <wpt lat="29.145429" lon="105.390337"><ele>442</ele><name></name></wpt>
  <wpt lat="29.14507" lon="105.389135"><ele>434</ele><name></name></wpt>
  <wpt lat="29.145396" lon="105.388692"><ele>432</ele><name></name></wpt>
  <wpt lat="29.145617" lon="105.388399"><ele>418</ele><name></name></wpt>
  <wpt lat="29.145662" lon="105.388367"><ele>417</ele><name></name></wpt>
  <wpt lat="29.146065" lon="105.388064"><ele>412</ele><name></name></wpt>
  <wpt lat="29.147449" lon="105.389654"><ele>412</ele><name></name></wpt>
  <wpt lat="29.147717" lon="105.389836"><ele>410</ele><name></name></wpt>
  <wpt lat="29.148611" lon="105.389937"><ele>414</ele><name></name></wpt>
  <wpt lat="29.148657" lon="105.389926"><ele>416</ele><name></name></wpt>
  <wpt lat="29.149312" lon="105.390067"><ele>409</ele><name></name></wpt>
  <wpt lat="29.150038" lon="105.390177"><ele>388</ele><name></name></wpt>
  <wpt lat="29.150802" lon="105.389187"><ele>357</ele><name></name></wpt>
  <wpt lat="29.150284" lon="105.387402"><ele>327</ele><name></name></wpt>
  <wpt lat="29.146843" lon="105.389058"><ele>418</ele><name></name></wpt>
  <wpt lat="29.143585" lon="105.38839"><ele>435</ele><name>出口</name></wpt>
  <wpt lat="29.143543" lon="105.388408"><ele>435</ele><name></name></wpt>
  <wpt lat="29.143274" lon="105.389244"><ele>458</ele><name>起/终点</name></wpt>
  <wpt lat="29.143123" lon="105.38949"><ele>466</ele><name>起终点</name></wpt>
  <trk><name>:04泸县玉蟾山采蘑菇亲子徒步环线</name>
      <trkseg>
        <trkpt lat="29.143122" lon="105.389644"><ele>466.60355</ele><time>2026-03-28T23:09:25.000Z</time></trkpt>
        <trkpt lat="29.143148" lon="105.389677"><ele>466.5203</ele><time>2026-03-28T23:09:35.000Z</time></trkpt>
        <trkpt lat="29.14314" lon="105.389739"><ele>467.1204</ele><time>2026-03-28T23:09:40.000Z</time></trkpt>
        <trkpt lat="29.143144" lon="105.389801"><ele>465.2131</ele><time>2026-03-28T23:09:58.000Z</time></trkpt>
        <trkpt lat="29.143143" lon="105.389845"><ele>465.23868</ele><time>2026-03-28T23:10:02.000Z</time></trkpt>
        <trkpt lat="29.14315" lon="105.389912"><ele>466.18762</ele><time>2026-03-28T23:10:09.000Z</time></trkpt>
        <trkpt lat="29.143134" lon="105.389973"><ele>466.7617</ele><time>2026-03-28T23:10:16.000Z</time></trkpt>
        <trkpt lat="29.143116" lon="105.390026"><ele>465.9612</ele><time>2026-03-28T23:10:21.000Z</time></trkpt>
        <trkpt lat="29.143116" lon="105.390085"><ele>464.26932</ele><time>2026-03-28T23:10:27.000Z</time></trkpt>
        <trkpt lat="29.143137" lon="105.390135"><ele>463.27554</ele><time>2026-03-28T23:10:32.000Z</time></trkpt>
        <trkpt lat="29.143159" lon="105.390183"><ele>463.47607</ele><time>2026-03-28T23:10:37.000Z</time></trkpt>
        <trkpt lat="29.143174" lon="105.390243"><ele>464.1849</ele><time>2026-03-28T23:10:44.000Z</time></trkpt>
        <trkpt lat="29.14317" lon="105.390296"><ele>466.0718</ele><time>2026-03-28T23:10:49.000Z</time></trkpt>
        <trkpt lat="29.14315" lon="105.390349"><ele>467.44907</ele><time>2026-03-28T23:10:55.000Z</time></trkpt>
        <trkpt lat="29.143124" lon="105.390397"><ele>468.39374</ele><time>2026-03-28T23:11:01.000Z</time></trkpt>
        <trkpt lat="29.143096" lon="105.390455"><ele>465.90213</ele><time>2026-03-28T23:11:27.000Z</time></trkpt>
        <trkpt lat="29.14308" lon="105.3905"><ele>464.95496</ele><time>2026-03-28T23:11:35.000Z</time></trkpt>
        <trkpt lat="29.14305" lon="105.390555"><ele>466.06458</ele><time>2026-03-28T23:11:44.000Z</time></trkpt>
        <trkpt lat="29.143023" lon="105.390609"><ele>466.1754</ele><time>2026-03-28T23:11:52.000Z</time></trkpt>
        <trkpt lat="29.142998" lon="105.390654"><ele>464.00552</ele><time>2026-03-28T23:12:00.000Z</time></trkpt>
        <trkpt lat="29.142969" lon="105.390698"><ele>463.72827</ele><time>2026-03-28T23:12:06.000Z</time></trkpt>
        <trkpt lat="29.142929" lon="105.390734"><ele>463.71533</ele><time>2026-03-28T23:12:12.000Z</time></trkpt>
        <trkpt lat="29.142897" lon="105.390765"><ele>463.0505</ele><time>2026-03-28T23:12:16.000Z</time></trkpt>
        <trkpt lat="29.142867" lon="105.390821"><ele>462.71393</ele><time>2026-03-28T23:12:21.000Z</time></trkpt>
        <trkpt lat="29.142843" lon="105.390882"><ele>462.55078</ele><time>2026-03-28T23:12:26.000Z</time></trkpt>
        <trkpt lat="29.142814" lon="105.390939"><ele>460.86395</ele><time>2026-03-28T23:12:33.000Z</time></trkpt>
        <trkpt lat="29.142792" lon="105.390984"><ele>459.38116</ele><time>2026-03-28T23:12:41.000Z</time></trkpt>
        <trkpt lat="29.142758" lon="105.391023"><ele>458.06723</ele><time>2026-03-28T23:12:50.000Z</time></trkpt>
        <trkpt lat="29.142726" lon="105.391064"><ele>457.80676</ele><time>2026-03-28T23:12:57.000Z</time></trkpt>
        <trkpt lat="29.142693" lon="105.391101"><ele>457.22482</ele><time>2026-03-28T23:13:03.000Z</time></trkpt>
        <trkpt lat="29.142638" lon="105.39111"><ele>456.96594</ele><time>2026-03-28T23:13:13.000Z</time></trkpt>
        <trkpt lat="29.142597" lon="105.39108"><ele>456.3734</ele><time>2026-03-28T23:13:22.000Z</time></trkpt>
        <trkpt lat="29.142603" lon="105.391128"><ele>455.72083</ele><time>2026-03-28T23:13:38.000Z</time></trkpt>
        <trkpt lat="29.14265" lon="105.391114"><ele>456.1823</ele><time>2026-03-28T23:13:47.000Z</time></trkpt>
        <trkpt lat="29.142693" lon="105.391079"><ele>456.8647</ele><time>2026-03-28T23:13:55.000Z</time></trkpt>
        <trkpt lat="29.142733" lon="105.391048"><ele>457.14294</ele><time>2026-03-28T23:14:02.000Z</time></trkpt>
        <trkpt lat="29.142761" lon="105.391005"><ele>458.53696</ele><time>2026-03-28T23:14:11.000Z</time></trkpt>
        <trkpt lat="29.142793" lon="105.390961"><ele>459.11343</ele><time>2026-03-28T23:14:23.000Z</time></trkpt>
        <trkpt lat="29.142815" lon="105.390917"><ele>460.83798</ele><time>2026-03-28T23:14:30.000Z</time></trkpt>
        <trkpt lat="29.142846" lon="105.390952"><ele>461.13858</ele><time>2026-03-28T23:14:41.000Z</time></trkpt>
        <trkpt lat="29.142862" lon="105.391003"><ele>461.42197</ele><time>2026-03-28T23:14:46.000Z</time></trkpt>
        <trkpt lat="29.142884" lon="105.391054"><ele>461.50745</ele><time>2026-03-28T23:14:51.000Z</time></trkpt>
        <trkpt lat="29.142922" lon="105.391098"><ele>461.48975</ele><time>2026-03-28T23:14:57.000Z</time></trkpt>
        <trkpt lat="29.142963" lon="105.391125"><ele>461.50537</ele><time>2026-03-28T23:15:02.000Z</time></trkpt>
        <trkpt lat="29.143013" lon="105.391146"><ele>462.29398</ele><time>2026-03-28T23:15:07.000Z</time></trkpt>
        <trkpt lat="29.143059" lon="105.391164"><ele>462.89133</ele><time>2026-03-28T23:15:12.000Z</time></trkpt>
        <trkpt lat="29.143104" lon="105.391192"><ele>463.0024</ele><time>2026-03-28T23:15:18.000Z</time></trkpt>
        <trkpt lat="29.143133" lon="105.391239"><ele>463.9518</ele><time>2026-03-28T23:15:24.000Z</time></trkpt>
        <trkpt lat="29.143155" lon="105.391287"><ele>464.043</ele><time>2026-03-28T23:15:29.000Z</time></trkpt>
        <trkpt lat="29.143191" lon="105.391334"><ele>464.1736</ele><time>2026-03-28T23:15:35.000Z</time></trkpt>
        <trkpt lat="29.143211" lon="105.391384"><ele>464.0463</ele><time>2026-03-28T23:15:40.000Z</time></trkpt>
        <trkpt lat="29.143229" lon="105.391436"><ele>463.64807</ele><time>2026-03-28T23:15:45.000Z</time></trkpt>
        <trkpt lat="29.143249" lon="105.391495"><ele>462.28027</ele><time>2026-03-28T23:15:52.000Z</time></trkpt>
        <trkpt lat="29.143269" lon="105.391548"><ele>460.9891</ele><time>2026-03-28T23:16:00.000Z</time></trkpt>
        <trkpt lat="29.143296" lon="105.391588"><ele>460.3063</ele><time>2026-03-28T23:16:06.000Z</time></trkpt>
        <trkpt lat="29.143324" lon="105.391644"><ele>460.79898</ele><time>2026-03-28T23:16:13.000Z</time></trkpt>
        <trkpt lat="29.143356" lon="105.391689"><ele>460.9133</ele><time>2026-03-28T23:16:19.000Z</time></trkpt>
        <trkpt lat="29.143374" lon="105.391738"><ele>461.16684</ele><time>2026-03-28T23:16:25.000Z</time></trkpt>
        <trkpt lat="29.143382" lon="105.39179"><ele>461.159</ele><time>2026-03-28T23:16:31.000Z</time></trkpt>
        <trkpt lat="29.143389" lon="105.391846"><ele>460.92093</ele><time>2026-03-28T23:16:37.000Z</time></trkpt>
        <trkpt lat="29.143395" lon="105.391899"><ele>461.04367</ele><time>2026-03-28T23:16:43.000Z</time></trkpt>
        <trkpt lat="29.143404" lon="105.391956"><ele>461.1961</ele><time>2026-03-28T23:16:49.000Z</time></trkpt>
        <trkpt lat="29.1434" lon="105.392025"><ele>460.92712</ele><time>2026-03-28T23:16:56.000Z</time></trkpt>
        <trkpt lat="29.143397" lon="105.39208"><ele>459.872</ele><time>2026-03-28T23:17:03.000Z</time></trkpt>
        <trkpt lat="29.143411" lon="105.392131"><ele>459.8864</ele><time>2026-03-28T23:17:09.000Z</time></trkpt>
        <trkpt lat="29.143411" lon="105.39219"><ele>459.85492</ele><time>2026-03-28T23:17:14.000Z</time></trkpt>
        <trkpt lat="29.143412" lon="105.392254"><ele>459.763</ele><time>2026-03-28T23:17:21.000Z</time></trkpt>
        <trkpt lat="29.143433" lon="105.392309"><ele>458.44766</ele><time>2026-03-28T23:17:30.000Z</time></trkpt>
        <trkpt lat="29.143461" lon="105.392348"><ele>458.01266</ele><time>2026-03-28T23:17:36.000Z</time></trkpt>
        <trkpt lat="29.1435" lon="105.39238"><ele>457.45697</ele><time>2026-03-28T23:17:41.000Z</time></trkpt>
        <trkpt lat="29.143548" lon="105.392411"><ele>457.14328</ele><time>2026-03-28T23:17:48.000Z</time></trkpt>
        <trkpt lat="29.143593" lon="105.392435"><ele>457.0921</ele><time>2026-03-28T23:17:54.000Z</time></trkpt>
        <trkpt lat="29.143633" lon="105.392455"><ele>457.30127</ele><time>2026-03-28T23:17:58.000Z</time></trkpt>
        <trkpt lat="29.143675" lon="105.392476"><ele>457.50815</ele><time>2026-03-28T23:18:02.000Z</time></trkpt>
        <trkpt lat="29.14372" lon="105.392506"><ele>457.6808</ele><time>2026-03-28T23:18:07.000Z</time></trkpt>
        <trkpt lat="29.143757" lon="105.392532"><ele>458.01843</ele><time>2026-03-28T23:18:11.000Z</time></trkpt>
        <trkpt lat="29.143806" lon="105.392564"><ele>458.64542</ele><time>2026-03-28T23:18:17.000Z</time></trkpt>
        <trkpt lat="29.143854" lon="105.392591"><ele>458.8802</ele><time>2026-03-28T23:18:25.000Z</time></trkpt>
        <trkpt lat="29.143894" lon="105.392614"><ele>459.71036</ele><time>2026-03-28T23:19:14.000Z</time></trkpt>
        <trkpt lat="29.143928" lon="105.392629"><ele>459.58347</ele><time>2026-03-28T23:19:21.000Z</time></trkpt>
        <trkpt lat="29.143972" lon="105.392663"><ele>459.78873</ele><time>2026-03-28T23:19:26.000Z</time></trkpt>
        <trkpt lat="29.144019" lon="105.392689"><ele>459.867</ele><time>2026-03-28T23:19:31.000Z</time></trkpt>
        <trkpt lat="29.144066" lon="105.392716"><ele>459.94113</ele><time>2026-03-28T23:19:36.000Z</time></trkpt>
        <trkpt lat="29.144113" lon="105.392743"><ele>459.16553</ele><time>2026-03-28T23:19:42.000Z</time></trkpt>
        <trkpt lat="29.144153" lon="105.392771"><ele>458.5525</ele><time>2026-03-28T23:19:47.000Z</time></trkpt>
        <trkpt lat="29.144193" lon="105.392808"><ele>458.57507</ele><time>2026-03-28T23:19:52.000Z</time></trkpt>
        <trkpt lat="29.144234" lon="105.392846"><ele>458.85236</ele><time>2026-03-28T23:19:57.000Z</time></trkpt>
        <trkpt lat="29.144272" lon="105.392883"><ele>459.21527</ele><time>2026-03-28T23:20:01.000Z</time></trkpt>
        <trkpt lat="29.144313" lon="105.392918"><ele>458.86844</ele><time>2026-03-28T23:20:06.000Z</time></trkpt>
        <trkpt lat="29.144349" lon="105.392951"><ele>458.7974</ele><time>2026-03-28T23:20:11.000Z</time></trkpt>
        <trkpt lat="29.144395" lon="105.39297"><ele>458.57208</ele><time>2026-03-28T23:20:17.000Z</time></trkpt>
        <trkpt lat="29.144443" lon="105.392992"><ele>458.09744</ele><time>2026-03-28T23:20:24.000Z</time></trkpt>
        <trkpt lat="29.144492" lon="105.393002"><ele>457.64154</ele><time>2026-03-28T23:20:30.000Z</time></trkpt>
        <trkpt lat="29.144544" lon="105.39302"><ele>458.3295</ele><time>2026-03-28T23:20:38.000Z</time></trkpt>
        <trkpt lat="29.144592" lon="105.393039"><ele>458.36862</ele><time>2026-03-28T23:20:44.000Z</time></trkpt>
        <trkpt lat="29.144643" lon="105.393048"><ele>457.55347</ele><time>2026-03-28T23:21:26.000Z</time></trkpt>
        <trkpt lat="29.144676" lon="105.393057"><ele>457.57422</ele><time>2026-03-28T23:21:32.000Z</time></trkpt>
        <trkpt lat="29.144728" lon="105.393102"><ele>457.1088</ele><time>2026-03-28T23:21:43.000Z</time></trkpt>
        <trkpt lat="29.144776" lon="105.393117"><ele>456.73633</ele><time>2026-03-28T23:21:50.000Z</time></trkpt>
        <trkpt lat="29.144816" lon="105.39314"><ele>456.90836</ele><time>2026-03-28T23:21:55.000Z</time></trkpt>
        <trkpt lat="29.144854" lon="105.393184"><ele>456.4506</ele><time>2026-03-28T23:22:03.000Z</time></trkpt>
        <trkpt lat="29.144889" lon="105.393222"><ele>455.7717</ele><time>2026-03-28T23:22:09.000Z</time></trkpt>
        <trkpt lat="29.144935" lon="105.393252"><ele>454.74884</ele><time>2026-03-28T23:22:15.000Z</time></trkpt>
        <trkpt lat="29.144982" lon="105.393276"><ele>453.87167</ele><time>2026-03-28T23:22:20.000Z</time></trkpt>
        <trkpt lat="29.145025" lon="105.393303"><ele>453.92316</ele><time>2026-03-28T23:22:24.000Z</time></trkpt>
        <trkpt lat="29.145076" lon="105.393331"><ele>452.90128</ele><time>2026-03-28T23:22:47.000Z</time></trkpt>
        <trkpt lat="29.145119" lon="105.393323"><ele>452.39276</ele><time>2026-03-28T23:22:58.000Z</time></trkpt>
        <trkpt lat="29.145171" lon="105.39333"><ele>452.79266</ele><time>2026-03-28T23:23:05.000Z</time></trkpt>
        <trkpt lat="29.145228" lon="105.39333"><ele>453.47214</ele><time>2026-03-28T23:23:14.000Z</time></trkpt>
        <trkpt lat="29.145278" lon="105.393331"><ele>452.36026</ele><time>2026-03-28T23:23:23.000Z</time></trkpt>
        <trkpt lat="29.145328" lon="105.393342"><ele>452.27023</ele><time>2026-03-28T23:23:30.000Z</time></trkpt>
        <trkpt lat="29.145369" lon="105.393375"><ele>453.27725</ele><time>2026-03-28T23:23:35.000Z</time></trkpt>
        <trkpt lat="29.145406" lon="105.39343"><ele>453.58044</ele><time>2026-03-28T23:23:42.000Z</time></trkpt>
        <trkpt lat="29.145445" lon="105.393468"><ele>453.25638</ele><time>2026-03-28T23:23:49.000Z</time></trkpt>
        <trkpt lat="29.145459" lon="105.393518"><ele>452.1965</ele><time>2026-03-28T23:23:56.000Z</time></trkpt>
        <trkpt lat="29.145472" lon="105.39357"><ele>451.2397</ele><time>2026-03-28T23:24:02.000Z</time></trkpt>
        <trkpt lat="29.145475" lon="105.39362"><ele>450.30008</ele><time>2026-03-28T23:24:07.000Z</time></trkpt>
        <trkpt lat="29.145484" lon="105.393675"><ele>449.15717</ele><time>2026-03-28T23:24:13.000Z</time></trkpt>
        <trkpt lat="29.1455" lon="105.393726"><ele>448.4154</ele><time>2026-03-28T23:24:19.000Z</time></trkpt>
        <trkpt lat="29.145538" lon="105.393767"><ele>447.48892</ele><time>2026-03-28T23:24:25.000Z</time></trkpt>
        <trkpt lat="29.145579" lon="105.393801"><ele>447.63016</ele><time>2026-03-28T23:24:30.000Z</time></trkpt>
        <trkpt lat="29.145616" lon="105.393844"><ele>446.5709</ele><time>2026-03-28T23:24:40.000Z</time></trkpt>
        <trkpt lat="29.14565" lon="105.393873"><ele>446.07196</ele><time>2026-03-28T23:24:51.000Z</time></trkpt>
        <trkpt lat="29.145692" lon="105.393895"><ele>446.17224</ele><time>2026-03-28T23:25:31.000Z</time></trkpt>
        <trkpt lat="29.145729" lon="105.393909"><ele>446.10983</ele><time>2026-03-28T23:25:37.000Z</time></trkpt>
        <trkpt lat="29.145774" lon="105.393935"><ele>446.14914</ele><time>2026-03-28T23:25:42.000Z</time></trkpt>
        <trkpt lat="29.145822" lon="105.39396"><ele>445.98456</ele><time>2026-03-28T23:25:48.000Z</time></trkpt>
        <trkpt lat="29.145868" lon="105.393995"><ele>445.50476</ele><time>2026-03-28T23:25:55.000Z</time></trkpt>
        <trkpt lat="29.145915" lon="105.394031"><ele>445.99692</ele><time>2026-03-28T23:26:01.000Z</time></trkpt>
        <trkpt lat="29.14596" lon="105.394059"><ele>445.92554</ele><time>2026-03-28T23:26:06.000Z</time></trkpt>
        <trkpt lat="29.146008" lon="105.394084"><ele>443.54178</ele><time>2026-03-28T23:26:18.000Z</time></trkpt>
        <trkpt lat="29.146034" lon="105.394116"><ele>442.7852</ele><time>2026-03-28T23:26:25.000Z</time></trkpt>
        <trkpt lat="29.146078" lon="105.394146"><ele>442.7313</ele><time>2026-03-28T23:26:33.000Z</time></trkpt>
        <trkpt lat="29.146124" lon="105.394173"><ele>441.68915</ele><time>2026-03-28T23:27:22.000Z</time></trkpt>
        <trkpt lat="29.146168" lon="105.39419"><ele>442.26495</ele><time>2026-03-28T23:27:56.000Z</time></trkpt>
        <trkpt lat="29.146212" lon="105.394203"><ele>442.49905</ele><time>2026-03-28T23:28:07.000Z</time></trkpt>
        <trkpt lat="29.146259" lon="105.394214"><ele>442.7919</ele><time>2026-03-28T23:28:24.000Z</time></trkpt>
        <trkpt lat="29.146305" lon="105.394218"><ele>443.01794</ele><time>2026-03-28T23:28:31.000Z</time></trkpt>
        <trkpt lat="29.146358" lon="105.394235"><ele>443.42624</ele><time>2026-03-28T23:28:41.000Z</time></trkpt>
        <trkpt lat="29.146391" lon="105.394279"><ele>443.55127</ele><time>2026-03-28T23:28:53.000Z</time></trkpt>
        <trkpt lat="29.146413" lon="105.394324"><ele>445.06653</ele><time>2026-03-28T23:29:04.000Z</time></trkpt>
        <trkpt lat="29.146398" lon="105.394372"><ele>446.1119</ele><time>2026-03-28T23:29:13.000Z</time></trkpt>
        <trkpt lat="29.146373" lon="105.394416"><ele>446.58655</ele><time>2026-03-28T23:29:19.000Z</time></trkpt>
        <trkpt lat="29.146351" lon="105.394471"><ele>447.4455</ele><time>2026-03-28T23:29:28.000Z</time></trkpt>
        <trkpt lat="29.146339" lon="105.394522"><ele>449.10553</ele><time>2026-03-28T23:29:36.000Z</time></trkpt>
        <trkpt lat="29.146336" lon="105.394579"><ele>450.55206</ele><time>2026-03-28T23:29:44.000Z</time></trkpt>
        <trkpt lat="29.146334" lon="105.394638"><ele>450.43274</ele><time>2026-03-28T23:29:51.000Z</time></trkpt>
        <trkpt lat="29.146282" lon="105.394657"><ele>449.62558</ele><time>2026-03-28T23:30:03.000Z</time></trkpt>
        <trkpt lat="29.14624" lon="105.394694"><ele>448.48923</ele><time>2026-03-28T23:30:18.000Z</time></trkpt>
        <trkpt lat="29.146227" lon="105.39475"><ele>449.2132</ele><time>2026-03-28T23:30:32.000Z</time></trkpt>
        <trkpt lat="29.146228" lon="105.394801"><ele>449.63956</ele><time>2026-03-28T23:30:41.000Z</time></trkpt>
        <trkpt lat="29.146234" lon="105.394859"><ele>449.69757</ele><time>2026-03-28T23:30:51.000Z</time></trkpt>
        <trkpt lat="29.146268" lon="105.394904"><ele>451.00906</ele><time>2026-03-28T23:31:04.000Z</time></trkpt>
        <trkpt lat="29.146309" lon="105.394883"><ele>453.10587</ele><time>2026-03-28T23:31:15.000Z</time></trkpt>
        <trkpt lat="29.146339" lon="105.394916"><ele>453.74265</ele><time>2026-03-28T23:31:25.000Z</time></trkpt>
        <trkpt lat="29.146362" lon="105.394968"><ele>454.40912</ele><time>2026-03-28T23:31:37.000Z</time></trkpt>
        <trkpt lat="29.146396" lon="105.395013"><ele>455.34152</ele><time>2026-03-28T23:31:49.000Z</time></trkpt>
        <trkpt lat="29.146426" lon="105.395052"><ele>455.86655</ele><time>2026-03-28T23:31:57.000Z</time></trkpt>
        <trkpt lat="29.146464" lon="105.395089"><ele>454.5067</ele><time>2026-03-28T23:32:08.000Z</time></trkpt>
        <trkpt lat="29.146502" lon="105.395112"><ele>455.29007</ele><time>2026-03-28T23:32:14.000Z</time></trkpt>
        <trkpt lat="29.146545" lon="105.395145"><ele>456.27628</ele><time>2026-03-28T23:32:22.000Z</time></trkpt>
        <trkpt lat="29.146582" lon="105.395195"><ele>457.37308</ele><time>2026-03-28T23:32:31.000Z</time></trkpt>
        <trkpt lat="29.146603" lon="105.395243"><ele>459.13025</ele><time>2026-03-28T23:32:38.000Z</time></trkpt>
        <trkpt lat="29.146622" lon="105.395301"><ele>459.1687</ele><time>2026-03-28T23:32:53.000Z</time></trkpt>
        <trkpt lat="29.146585" lon="105.395271"><ele>455.21805</ele><time>2026-03-28T23:33:31.000Z</time></trkpt>
        <trkpt lat="29.146565" lon="105.395225"><ele>453.59558</ele><time>2026-03-28T23:33:38.000Z</time></trkpt>
        <trkpt lat="29.146543" lon="105.395172"><ele>453.15067</ele><time>2026-03-28T23:33:46.000Z</time></trkpt>
        <trkpt lat="29.146559" lon="105.395118"><ele>455.10513</ele><time>2026-03-28T23:33:57.000Z</time></trkpt>
        <trkpt lat="29.146609" lon="105.395121"><ele>457.17728</ele><time>2026-03-28T23:34:07.000Z</time></trkpt>
        <trkpt lat="29.146653" lon="105.395138"><ele>456.52444</ele><time>2026-03-28T23:34:15.000Z</time></trkpt>
        <trkpt lat="29.146707" lon="105.39513"><ele>457.64383</ele><time>2026-03-28T23:34:24.000Z</time></trkpt>
        <trkpt lat="29.146742" lon="105.395164"><ele>459.57538</ele><time>2026-03-28T23:34:48.000Z</time></trkpt>
        <trkpt lat="29.146775" lon="105.395198"><ele>461.18063</ele><time>2026-03-28T23:34:57.000Z</time></trkpt>
        <trkpt lat="29.146816" lon="105.39524"><ele>464.2909</ele><time>2026-03-28T23:35:08.000Z</time></trkpt>
        <trkpt lat="29.146858" lon="105.39527"><ele>466.2532</ele><time>2026-03-28T23:35:22.000Z</time></trkpt>
        <trkpt lat="29.146894" lon="105.395305"><ele>468.96103</ele><time>2026-03-28T23:35:41.000Z</time></trkpt>
        <trkpt lat="29.146915" lon="105.395351"><ele>470.0299</ele><time>2026-03-28T23:35:51.000Z</time></trkpt>
        <trkpt lat="29.146949" lon="105.395387"><ele>471.51746</ele><time>2026-03-28T23:36:01.000Z</time></trkpt>
        <trkpt lat="29.146976" lon="105.395429"><ele>472.84958</ele><time>2026-03-28T23:36:13.000Z</time></trkpt>
        <trkpt lat="29.147002" lon="105.395476"><ele>473.67325</ele><time>2026-03-28T23:36:23.000Z</time></trkpt>
        <trkpt lat="29.147028" lon="105.395521"><ele>475.3717</ele><time>2026-03-28T23:36:34.000Z</time></trkpt>
        <trkpt lat="29.147067" lon="105.395552"><ele>476.62976</ele><time>2026-03-28T23:36:44.000Z</time></trkpt>
        <trkpt lat="29.147107" lon="105.395599"><ele>477.09128</ele><time>2026-03-28T23:36:55.000Z</time></trkpt>
        <trkpt lat="29.147141" lon="105.395638"><ele>479.19473</ele><time>2026-03-28T23:37:06.000Z</time></trkpt>
        <trkpt lat="29.147178" lon="105.39567"><ele>480.14075</ele><time>2026-03-28T23:37:23.000Z</time></trkpt>
        <trkpt lat="29.147217" lon="105.395698"><ele>480.4306</ele><time>2026-03-28T23:37:35.000Z</time></trkpt>
        <trkpt lat="29.147267" lon="105.395717"><ele>482.2394</ele><time>2026-03-28T23:37:53.000Z</time></trkpt>
        <trkpt lat="29.147308" lon="105.395739"><ele>483.1648</ele><time>2026-03-28T23:38:03.000Z</time></trkpt>
        <trkpt lat="29.147351" lon="105.395758"><ele>484.49344</ele><time>2026-03-28T23:38:11.000Z</time></trkpt>
        <trkpt lat="29.147395" lon="105.395784"><ele>486.69324</ele><time>2026-03-28T23:38:19.000Z</time></trkpt>
        <trkpt lat="29.147444" lon="105.395797"><ele>487.54962</ele><time>2026-03-28T23:38:29.000Z</time></trkpt>
        <trkpt lat="29.147489" lon="105.395812"><ele>488.90143</ele><time>2026-03-28T23:38:38.000Z</time></trkpt>
        <trkpt lat="29.147532" lon="105.395823"><ele>490.00336</ele><time>2026-03-28T23:38:44.000Z</time></trkpt>
        <trkpt lat="29.147587" lon="105.395838"><ele>490.2458</ele><time>2026-03-28T23:38:57.000Z</time></trkpt>
        <trkpt lat="29.147627" lon="105.395863"><ele>489.097</ele><time>2026-03-28T23:39:14.000Z</time></trkpt>
        <trkpt lat="29.147668" lon="105.395891"><ele>489.04294</ele><time>2026-03-28T23:39:49.000Z</time></trkpt>
        <trkpt lat="29.147701" lon="105.395906"><ele>489.22137</ele><time>2026-03-28T23:39:54.000Z</time></trkpt>
        <trkpt lat="29.147744" lon="105.39594"><ele>489.3932</ele><time>2026-03-28T23:40:00.000Z</time></trkpt>
        <trkpt lat="29.147785" lon="105.39598"><ele>489.6246</ele><time>2026-03-28T23:40:06.000Z</time></trkpt>
        <trkpt lat="29.147831" lon="105.396002"><ele>489.1151</ele><time>2026-03-28T23:40:11.000Z</time></trkpt>
        <trkpt lat="29.14788" lon="105.396028"><ele>488.71765</ele><time>2026-03-28T23:40:17.000Z</time></trkpt>
        <trkpt lat="29.147921" lon="105.396055"><ele>488.96384</ele><time>2026-03-28T23:40:22.000Z</time></trkpt>
        <trkpt lat="29.147952" lon="105.396105"><ele>488.35275</ele><time>2026-03-28T23:40:30.000Z</time></trkpt>
        <trkpt lat="29.147983" lon="105.396145"><ele>488.06018</ele><time>2026-03-28T23:40:36.000Z</time></trkpt>
        <trkpt lat="29.148021" lon="105.396185"><ele>488.69925</ele><time>2026-03-28T23:40:43.000Z</time></trkpt>
        <trkpt lat="29.148055" lon="105.396231"><ele>489.29376</ele><time>2026-03-28T23:40:53.000Z</time></trkpt>
        <trkpt lat="29.148088" lon="105.396268"><ele>489.61707</ele><time>2026-03-28T23:41:01.000Z</time></trkpt>
        <trkpt lat="29.148111" lon="105.396316"><ele>490.13446</ele><time>2026-03-28T23:41:09.000Z</time></trkpt>
        <trkpt lat="29.148138" lon="105.396355"><ele>491.1741</ele><time>2026-03-28T23:41:15.000Z</time></trkpt>
        <trkpt lat="29.148161" lon="105.396406"><ele>491.5088</ele><time>2026-03-28T23:41:24.000Z</time></trkpt>
        <trkpt lat="29.148189" lon="105.396453"><ele>490.90817</ele><time>2026-03-28T23:41:33.000Z</time></trkpt>
        <trkpt lat="29.148214" lon="105.396499"><ele>491.9534</ele><time>2026-03-28T23:41:41.000Z</time></trkpt>
        <trkpt lat="29.148232" lon="105.396547"><ele>493.30637</ele><time>2026-03-28T23:41:49.000Z</time></trkpt>
        <trkpt lat="29.14826" lon="105.396592"><ele>495.34494</ele><time>2026-03-28T23:41:57.000Z</time></trkpt>
        <trkpt lat="29.148283" lon="105.39664"><ele>497.28375</ele><time>2026-03-28T23:42:05.000Z</time></trkpt>
        <trkpt lat="29.148312" lon="105.396684"><ele>499.6024</ele><time>2026-03-28T23:42:14.000Z</time></trkpt>
        <trkpt lat="29.148327" lon="105.396734"><ele>500.62363</ele><time>2026-03-28T23:42:23.000Z</time></trkpt>
        <trkpt lat="29.148341" lon="105.396786"><ele>503.17227</ele><time>2026-03-28T23:42:33.000Z</time></trkpt>
        <trkpt lat="29.148355" lon="105.396837"><ele>503.47235</ele><time>2026-03-28T23:42:45.000Z</time></trkpt>
        <trkpt lat="29.148376" lon="105.396886"><ele>504.22073</ele><time>2026-03-28T23:42:56.000Z</time></trkpt>
        <trkpt lat="29.148387" lon="105.396938"><ele>505.21924</ele><time>2026-03-28T23:43:04.000Z</time></trkpt>
        <trkpt lat="29.148407" lon="105.396989"><ele>507.43384</ele><time>2026-03-28T23:43:14.000Z</time></trkpt>
        <trkpt lat="29.14843" lon="105.397036"><ele>508.47745</ele><time>2026-03-28T23:43:23.000Z</time></trkpt>
        <trkpt lat="29.148444" lon="105.397085"><ele>509.55533</ele><time>2026-03-28T23:43:32.000Z</time></trkpt>
        <trkpt lat="29.148457" lon="105.397136"><ele>510.9904</ele><time>2026-03-28T23:43:41.000Z</time></trkpt>
        <trkpt lat="29.148474" lon="105.397192"><ele>511.8707</ele><time>2026-03-28T23:43:52.000Z</time></trkpt>
        <trkpt lat="29.148483" lon="105.397246"><ele>512.4108</ele><time>2026-03-28T23:44:01.000Z</time></trkpt>
        <trkpt lat="29.148505" lon="105.397297"><ele>513.69385</ele><time>2026-03-28T23:44:10.000Z</time></trkpt>
        <trkpt lat="29.148527" lon="105.397349"><ele>514.83746</ele><time>2026-03-28T23:44:17.000Z</time></trkpt>
        <trkpt lat="29.148543" lon="105.397407"><ele>516.20337</ele><time>2026-03-28T23:44:26.000Z</time></trkpt>
        <trkpt lat="29.148558" lon="105.397457"><ele>517.32996</ele><time>2026-03-28T23:44:34.000Z</time></trkpt>
        <trkpt lat="29.148578" lon="105.39751"><ele>519.52747</ele><time>2026-03-28T23:44:44.000Z</time></trkpt>
        <trkpt lat="29.148595" lon="105.397561"><ele>520.9841</ele><time>2026-03-28T23:44:54.000Z</time></trkpt>
        <trkpt lat="29.148609" lon="105.397612"><ele>522.90137</ele><time>2026-03-28T23:48:40.000Z</time></trkpt>
        <trkpt lat="29.148617" lon="105.397646"><ele>523.2685</ele><time>2026-03-28T23:48:46.000Z</time></trkpt>
        <trkpt lat="29.148638" lon="105.39771"><ele>522.76807</ele><time>2026-03-28T23:48:54.000Z</time></trkpt>
        <trkpt lat="29.148654" lon="105.397768"><ele>522.1725</ele><time>2026-03-28T23:49:01.000Z</time></trkpt>
        <trkpt lat="29.148669" lon="105.397815"><ele>522.8222</ele><time>2026-03-28T23:49:06.000Z</time></trkpt>
        <trkpt lat="29.148691" lon="105.397864"><ele>523.4429</ele><time>2026-03-28T23:49:12.000Z</time></trkpt>
        <trkpt lat="29.14871" lon="105.397909"><ele>523.51</ele><time>2026-03-28T23:49:17.000Z</time></trkpt>
        <trkpt lat="29.148735" lon="105.397966"><ele>523.51373</ele><time>2026-03-28T23:49:24.000Z</time></trkpt>
        <trkpt lat="29.148765" lon="105.398019"><ele>522.5205</ele><time>2026-03-28T23:49:35.000Z</time></trkpt>
        <trkpt lat="29.148798" lon="105.398058"><ele>522.06256</ele><time>2026-03-28T23:49:45.000Z</time></trkpt>
        <trkpt lat="29.148819" lon="105.398104"><ele>521.8938</ele><time>2026-03-28T23:49:52.000Z</time></trkpt>
        <trkpt lat="29.148845" lon="105.398152"><ele>521.71</ele><time>2026-03-28T23:49:59.000Z</time></trkpt>
        <trkpt lat="29.148873" lon="105.398208"><ele>520.0099</ele><time>2026-03-28T23:50:09.000Z</time></trkpt>
        <trkpt lat="29.148893" lon="105.398259"><ele>519.14954</ele><time>2026-03-28T23:50:17.000Z</time></trkpt>
        <trkpt lat="29.148918" lon="105.398317"><ele>517.83075</ele><time>2026-03-28T23:50:25.000Z</time></trkpt>
        <trkpt lat="29.148938" lon="105.39837"><ele>516.2096</ele><time>2026-03-28T23:50:32.000Z</time></trkpt>
        <trkpt lat="29.148954" lon="105.398423"><ele>514.06903</ele><time>2026-03-28T23:50:40.000Z</time></trkpt>
        <trkpt lat="29.148964" lon="105.398475"><ele>510.58417</ele><time>2026-03-28T23:50:48.000Z</time></trkpt>
        <trkpt lat="29.148984" lon="105.39853"><ele>509.01318</ele><time>2026-03-28T23:50:56.000Z</time></trkpt>
        <trkpt lat="29.149012" lon="105.398578"><ele>509.391</ele><time>2026-03-28T23:51:03.000Z</time></trkpt>
        <trkpt lat="29.148993" lon="105.398631"><ele>508.52298</ele><time>2026-03-28T23:51:12.000Z</time></trkpt>
        <trkpt lat="29.148961" lon="105.398668"><ele>508.70374</ele><time>2026-03-28T23:51:18.000Z</time></trkpt>
        <trkpt lat="29.148943" lon="105.398709"><ele>508.4953</ele><time>2026-03-28T23:51:22.000Z</time></trkpt>
        <trkpt lat="29.148904" lon="105.398752"><ele>506.4228</ele><time>2026-03-28T23:51:30.000Z</time></trkpt>
        <trkpt lat="29.148903" lon="105.398797"><ele>504.55713</ele><time>2026-03-28T23:51:36.000Z</time></trkpt>
        <trkpt lat="29.148898" lon="105.398854"><ele>503.61954</ele><time>2026-03-28T23:51:44.000Z</time></trkpt>
        <trkpt lat="29.148884" lon="105.398905"><ele>501.5278</ele><time>2026-03-28T23:51:52.000Z</time></trkpt>
        <trkpt lat="29.148864" lon="105.398961"><ele>499.71127</ele><time>2026-03-28T23:52:03.000Z</time></trkpt>
        <trkpt lat="29.148832" lon="105.399007"><ele>498.13925</ele><time>2026-03-28T23:52:19.000Z</time></trkpt>
        <trkpt lat="29.148803" lon="105.399048"><ele>497.8001</ele><time>2026-03-28T23:52:34.000Z</time></trkpt>
        <trkpt lat="29.148782" lon="105.399099"><ele>494.58566</ele><time>2026-03-28T23:53:01.000Z</time></trkpt>
        <trkpt lat="29.14876" lon="105.399174"><ele>499.51874</ele><time>2026-03-28T23:53:31.000Z</time></trkpt>
        <trkpt lat="29.148764" lon="105.399135"><ele>495.4376</ele><time>2026-03-28T23:53:37.000Z</time></trkpt>
        <trkpt lat="29.148738" lon="105.399176"><ele>491.10504</ele><time>2026-03-28T23:54:07.000Z</time></trkpt>
        <trkpt lat="29.148707" lon="105.399214"><ele>491.26706</ele><time>2026-03-28T23:54:44.000Z</time></trkpt>
        <trkpt lat="29.148664" lon="105.399227"><ele>489.6679</ele><time>2026-03-28T23:55:06.000Z</time></trkpt>
        <trkpt lat="29.148622" lon="105.399253"><ele>480.38165</ele><time>2026-03-28T23:57:08.000Z</time></trkpt>
        <trkpt lat="29.148608" lon="105.399308"><ele>481.74487</ele><time>2026-03-28T23:58:15.000Z</time></trkpt>
        <trkpt lat="29.148578" lon="105.399268"><ele>483.803</ele><time>2026-03-28T23:58:43.000Z</time></trkpt>
        <trkpt lat="29.148535" lon="105.399248"><ele>480.06705</ele><time>2026-03-28T23:59:37.000Z</time></trkpt>
        <trkpt lat="29.148494" lon="105.399273"><ele>477.60413</ele><time>2026-03-29T00:00:16.000Z</time></trkpt>
        <trkpt lat="29.148449" lon="105.399277"><ele>474.0685</ele><time>2026-03-29T00:00:39.000Z</time></trkpt>
        <trkpt lat="29.148399" lon="105.39927"><ele>469.90067</ele><time>2026-03-29T00:00:56.000Z</time></trkpt>
        <trkpt lat="29.148363" lon="105.399234"><ele>474.947</ele><time>2026-03-29T00:02:14.000Z</time></trkpt>
        <trkpt lat="29.148318" lon="105.399257"><ele>472.67072</ele><time>2026-03-29T00:03:21.000Z</time></trkpt>
        <trkpt lat="29.148269" lon="105.39926"><ele>465.08987</ele><time>2026-03-29T00:06:14.000Z</time></trkpt>
        <trkpt lat="29.148228" lon="105.399243"><ele>461.5217</ele><time>2026-03-29T00:06:32.000Z</time></trkpt>
        <trkpt lat="29.148178" lon="105.399252"><ele>458.76013</ele><time>2026-03-29T00:06:41.000Z</time></trkpt>
        <trkpt lat="29.14813" lon="105.399252"><ele>457.7222</ele><time>2026-03-29T00:06:56.000Z</time></trkpt>
        <trkpt lat="29.148093" lon="105.39922"><ele>454.4734</ele><time>2026-03-29T00:07:14.000Z</time></trkpt>
        <trkpt lat="29.148081" lon="105.399166"><ele>453.42072</ele><time>2026-03-29T00:07:44.000Z</time></trkpt>
        <trkpt lat="29.148036" lon="105.399166"><ele>450.39615</ele><time>2026-03-29T00:08:01.000Z</time></trkpt>
        <trkpt lat="29.148" lon="105.39913"><ele>449.7734</ele><time>2026-03-29T00:10:59.000Z</time></trkpt>
        <trkpt lat="29.147979" lon="105.399141"><ele>448.46878</ele><time>2026-03-29T00:11:20.000Z</time></trkpt>
        <trkpt lat="29.147944" lon="105.399106"><ele>447.97864</ele><time>2026-03-29T00:13:35.000Z</time></trkpt>
        <trkpt lat="29.147902" lon="105.399085"><ele>443.4442</ele><time>2026-03-29T00:14:44.000Z</time></trkpt>
        <trkpt lat="29.14785" lon="105.399097"><ele>441.91205</ele><time>2026-03-29T00:15:10.000Z</time></trkpt>
        <trkpt lat="29.147808" lon="105.399089"><ele>440.07874</ele><time>2026-03-29T00:15:25.000Z</time></trkpt>
        <trkpt lat="29.147765" lon="105.399122"><ele>431.72223</ele><time>2026-03-29T00:16:53.000Z</time></trkpt>
        <trkpt lat="29.147724" lon="105.399157"><ele>433.30032</ele><time>2026-03-29T00:17:10.000Z</time></trkpt>
        <trkpt lat="29.147689" lon="105.399124"><ele>431.41187</ele><time>2026-03-29T00:17:26.000Z</time></trkpt>
        <trkpt lat="29.147685" lon="105.399071"><ele>432.50446</ele><time>2026-03-29T00:17:37.000Z</time></trkpt>
        <trkpt lat="29.147646" lon="105.399105"><ele>432.13663</ele><time>2026-03-29T00:18:10.000Z</time></trkpt>
        <trkpt lat="29.14765" lon="105.399077"><ele>431.87262</ele><time>2026-03-29T00:18:13.000Z</time></trkpt>
        <trkpt lat="29.147694" lon="105.399027"><ele>433.75687</ele><time>2026-03-29T00:18:26.000Z</time></trkpt>
        <trkpt lat="29.147704" lon="105.398969"><ele>436.7955</ele><time>2026-03-29T00:18:47.000Z</time></trkpt>
        <trkpt lat="29.147714" lon="105.398911"><ele>437.82828</ele><time>2026-03-29T00:20:32.000Z</time></trkpt>
        <trkpt lat="29.147668" lon="105.398936"><ele>438.28857</ele><time>2026-03-29T00:21:07.000Z</time></trkpt>
        <trkpt lat="29.147635" lon="105.39889"><ele>436.14456</ele><time>2026-03-29T00:21:21.000Z</time></trkpt>
        <trkpt lat="29.147591" lon="105.398862"><ele>439.3477</ele><time>2026-03-29T00:21:43.000Z</time></trkpt>
        <trkpt lat="29.147563" lon="105.398822"><ele>435.68774</ele><time>2026-03-29T00:21:59.000Z</time></trkpt>
        <trkpt lat="29.14753" lon="105.398777"><ele>435.57953</ele><time>2026-03-29T00:22:22.000Z</time></trkpt>
        <trkpt lat="29.147519" lon="105.398715"><ele>437.55048</ele><time>2026-03-29T00:22:45.000Z</time></trkpt>
        <trkpt lat="29.147472" lon="105.398719"><ele>438.8158</ele><time>2026-03-29T00:23:14.000Z</time></trkpt>
        <trkpt lat="29.147443" lon="105.398669"><ele>440.8759</ele><time>2026-03-29T00:24:15.000Z</time></trkpt>
        <trkpt lat="29.14744" lon="105.398617"><ele>442.5047</ele><time>2026-03-29T00:24:41.000Z</time></trkpt>
        <trkpt lat="29.147433" lon="105.398564"><ele>444.39487</ele><time>2026-03-29T00:24:58.000Z</time></trkpt>
        <trkpt lat="29.147413" lon="105.398513"><ele>446.45892</ele><time>2026-03-29T00:25:09.000Z</time></trkpt>
        <trkpt lat="29.147396" lon="105.398561"><ele>449.38303</ele><time>2026-03-29T00:26:25.000Z</time></trkpt>
        <trkpt lat="29.147352" lon="105.398554"><ele>446.65668</ele><time>2026-03-29T00:26:48.000Z</time></trkpt>
        <trkpt lat="29.147369" lon="105.398504"><ele>446.94955</ele><time>2026-03-29T00:27:03.000Z</time></trkpt>
        <trkpt lat="29.147407" lon="105.39846"><ele>450.37616</ele><time>2026-03-29T00:29:00.000Z</time></trkpt>
        <trkpt lat="29.147368" lon="105.398429"><ele>450.4335</ele><time>2026-03-29T00:30:37.000Z</time></trkpt>
        <trkpt lat="29.147326" lon="105.398413"><ele>449.17404</ele><time>2026-03-29T00:30:52.000Z</time></trkpt>
        <trkpt lat="29.147283" lon="105.398373"><ele>450.71704</ele><time>2026-03-29T00:31:12.000Z</time></trkpt>
        <trkpt lat="29.147246" lon="105.398338"><ele>449.21106</ele><time>2026-03-29T00:31:39.000Z</time></trkpt>
        <trkpt lat="29.147214" lon="105.398302"><ele>448.04965</ele><time>2026-03-29T00:31:52.000Z</time></trkpt>
        <trkpt lat="29.147171" lon="105.398278"><ele>447.41992</ele><time>2026-03-29T00:33:13.000Z</time></trkpt>
        <trkpt lat="29.147131" lon="105.398255"><ele>447.64352</ele><time>2026-03-29T00:33:32.000Z</time></trkpt>
        <trkpt lat="29.147093" lon="105.398224"><ele>446.81256</ele><time>2026-03-29T00:33:41.000Z</time></trkpt>
        <trkpt lat="29.147063" lon="105.398265"><ele>447.84604</ele><time>2026-03-29T00:34:00.000Z</time></trkpt>
        <trkpt lat="29.147024" lon="105.398238"><ele>445.17932</ele><time>2026-03-29T00:34:48.000Z</time></trkpt>
        <trkpt lat="29.146982" lon="105.398214"><ele>442.38727</ele><time>2026-03-29T00:34:57.000Z</time></trkpt>
        <trkpt lat="29.146943" lon="105.398186"><ele>441.03842</ele><time>2026-03-29T00:35:06.000Z</time></trkpt>
        <trkpt lat="29.14689" lon="105.398196"><ele>441.19366</ele><time>2026-03-29T00:35:18.000Z</time></trkpt>
        <trkpt lat="29.146862" lon="105.398243"><ele>439.96286</ele><time>2026-03-29T00:36:15.000Z</time></trkpt>
        <trkpt lat="29.14683" lon="105.398268"><ele>439.59274</ele><time>2026-03-29T00:36:22.000Z</time></trkpt>
        <trkpt lat="29.146776" lon="105.398261"><ele>437.68863</ele><time>2026-03-29T00:36:30.000Z</time></trkpt>
        <trkpt lat="29.146726" lon="105.398254"><ele>435.76105</ele><time>2026-03-29T00:36:38.000Z</time></trkpt>
        <trkpt lat="29.146681" lon="105.398233"><ele>433.6528</ele><time>2026-03-29T00:36:46.000Z</time></trkpt>
        <trkpt lat="29.146628" lon="105.398211"><ele>430.87885</ele><time>2026-03-29T00:36:57.000Z</time></trkpt>
        <trkpt lat="29.146575" lon="105.398206"><ele>430.22855</ele><time>2026-03-29T00:37:17.000Z</time></trkpt>
        <trkpt lat="29.146538" lon="105.398191"><ele>428.86298</ele><time>2026-03-29T00:37:24.000Z</time></trkpt>
        <trkpt lat="29.14649" lon="105.39817"><ele>428.3905</ele><time>2026-03-29T00:37:30.000Z</time></trkpt>
        <trkpt lat="29.146434" lon="105.398157"><ele>424.4681</ele><time>2026-03-29T00:37:58.000Z</time></trkpt>
        <trkpt lat="29.146389" lon="105.398134"><ele>422.57272</ele><time>2026-03-29T00:38:09.000Z</time></trkpt>
        <trkpt lat="29.146335" lon="105.398124"><ele>421.26215</ele><time>2026-03-29T00:38:16.000Z</time></trkpt>
        <trkpt lat="29.146284" lon="105.398119"><ele>420.62894</ele><time>2026-03-29T00:38:22.000Z</time></trkpt>
        <trkpt lat="29.146237" lon="105.398101"><ele>419.756</ele><time>2026-03-29T00:38:27.000Z</time></trkpt>
        <trkpt lat="29.146185" lon="105.398083"><ele>418.57257</ele><time>2026-03-29T00:38:32.000Z</time></trkpt>
        <trkpt lat="29.146128" lon="105.398054"><ele>416.77942</ele><time>2026-03-29T00:38:42.000Z</time></trkpt>
        <trkpt lat="29.146097" lon="105.398018"><ele>416.0156</ele><time>2026-03-29T00:38:52.000Z</time></trkpt>
        <trkpt lat="29.146067" lon="105.397995"><ele>415.65482</ele><time>2026-03-29T00:38:56.000Z</time></trkpt>
        <trkpt lat="29.14602" lon="105.397951"><ele>414.15717</ele><time>2026-03-29T00:39:03.000Z</time></trkpt>
        <trkpt lat="29.145979" lon="105.397923"><ele>412.00165</ele><time>2026-03-29T00:39:07.000Z</time></trkpt>
        <trkpt lat="29.145947" lon="105.397883"><ele>411.39404</ele><time>2026-03-29T00:39:12.000Z</time></trkpt>
        <trkpt lat="29.145919" lon="105.397824"><ele>410.7676</ele><time>2026-03-29T00:39:22.000Z</time></trkpt>
        <trkpt lat="29.145906" lon="105.397764"><ele>409.0544</ele><time>2026-03-29T00:39:47.000Z</time></trkpt>
        <trkpt lat="29.145898" lon="105.397719"><ele>408.1675</ele><time>2026-03-29T00:39:54.000Z</time></trkpt>
        <trkpt lat="29.145895" lon="105.397762"><ele>409.50748</ele><time>2026-03-29T00:40:35.000Z</time></trkpt>
        <trkpt lat="29.145888" lon="105.397709"><ele>408.08264</ele><time>2026-03-29T00:40:51.000Z</time></trkpt>
        <trkpt lat="29.145914" lon="105.397649"><ele>406.96506</ele><time>2026-03-29T00:40:59.000Z</time></trkpt>
        <trkpt lat="29.145936" lon="105.397598"><ele>407.14902</ele><time>2026-03-29T00:41:09.000Z</time></trkpt>
        <trkpt lat="29.145954" lon="105.397551"><ele>405.50253</ele><time>2026-03-29T00:41:14.000Z</time></trkpt>
        <trkpt lat="29.145977" lon="105.397501"><ele>405.2567</ele><time>2026-03-29T00:41:21.000Z</time></trkpt>
        <trkpt lat="29.146" lon="105.397452"><ele>405.05908</ele><time>2026-03-29T00:41:29.000Z</time></trkpt>
        <trkpt lat="29.146022" lon="105.397404"><ele>405.20508</ele><time>2026-03-29T00:41:35.000Z</time></trkpt>
        <trkpt lat="29.146044" lon="105.39736"><ele>405.17175</ele><time>2026-03-29T00:41:40.000Z</time></trkpt>
        <trkpt lat="29.146072" lon="105.397303"><ele>406.44977</ele><time>2026-03-29T00:41:54.000Z</time></trkpt>
        <trkpt lat="29.146092" lon="105.397263"><ele>406.71335</ele><time>2026-03-29T00:41:59.000Z</time></trkpt>
        <trkpt lat="29.14611" lon="105.397203"><ele>407.49158</ele><time>2026-03-29T00:42:05.000Z</time></trkpt>
        <trkpt lat="29.146113" lon="105.397141"><ele>406.6448</ele><time>2026-03-29T00:42:11.000Z</time></trkpt>
        <trkpt lat="29.146081" lon="105.397099"><ele>405.93085</ele><time>2026-03-29T00:42:17.000Z</time></trkpt>
        <trkpt lat="29.14604" lon="105.397068"><ele>405.08133</ele><time>2026-03-29T00:42:22.000Z</time></trkpt>
        <trkpt lat="29.146003" lon="105.397032"><ele>404.70343</ele><time>2026-03-29T00:42:27.000Z</time></trkpt>
        <trkpt lat="29.145979" lon="105.396985"><ele>404.36044</ele><time>2026-03-29T00:42:32.000Z</time></trkpt>
        <trkpt lat="29.145961" lon="105.396936"><ele>404.26007</ele><time>2026-03-29T00:42:37.000Z</time></trkpt>
        <trkpt lat="29.145943" lon="105.396873"><ele>403.9105</ele><time>2026-03-29T00:42:44.000Z</time></trkpt>
        <trkpt lat="29.145942" lon="105.396813"><ele>404.09622</ele><time>2026-03-29T00:42:50.000Z</time></trkpt>
        <trkpt lat="29.145957" lon="105.396763"><ele>403.57037</ele><time>2026-03-29T00:42:55.000Z</time></trkpt>
        <trkpt lat="29.145971" lon="105.39671"><ele>403.1098</ele><time>2026-03-29T00:43:00.000Z</time></trkpt>
        <trkpt lat="29.145973" lon="105.396657"><ele>403.93787</ele><time>2026-03-29T00:43:04.000Z</time></trkpt>
        <trkpt lat="29.145955" lon="105.396591"><ele>406.55618</ele><time>2026-03-29T00:43:18.000Z</time></trkpt>
        <trkpt lat="29.145932" lon="105.396542"><ele>406.64865</ele><time>2026-03-29T00:43:24.000Z</time></trkpt>
        <trkpt lat="29.145888" lon="105.396521"><ele>406.9113</ele><time>2026-03-29T00:43:29.000Z</time></trkpt>
        <trkpt lat="29.145843" lon="105.396493"><ele>405.86877</ele><time>2026-03-29T00:43:34.000Z</time></trkpt>
        <trkpt lat="29.145796" lon="105.396491"><ele>405.07956</ele><time>2026-03-29T00:43:39.000Z</time></trkpt>
        <trkpt lat="29.145745" lon="105.396466"><ele>403.66043</ele><time>2026-03-29T00:44:06.000Z</time></trkpt>
        <trkpt lat="29.145734" lon="105.396433"><ele>403.00143</ele><time>2026-03-29T00:44:10.000Z</time></trkpt>
        <trkpt lat="29.145709" lon="105.396383"><ele>401.856</ele><time>2026-03-29T00:44:15.000Z</time></trkpt>
        <trkpt lat="29.145669" lon="105.396348"><ele>401.06824</ele><time>2026-03-29T00:44:20.000Z</time></trkpt>
        <trkpt lat="29.145613" lon="105.396323"><ele>400.484</ele><time>2026-03-29T00:44:26.000Z</time></trkpt>
        <trkpt lat="29.145573" lon="105.396293"><ele>400.298</ele><time>2026-03-29T00:44:31.000Z</time></trkpt>
        <trkpt lat="29.145541" lon="105.396246"><ele>400.29303</ele><time>2026-03-29T00:44:38.000Z</time></trkpt>
        <trkpt lat="29.145565" lon="105.396194"><ele>399.49698</ele><time>2026-03-29T00:44:47.000Z</time></trkpt>
        <trkpt lat="29.145615" lon="105.396158"><ele>401.57895</ele><time>2026-03-29T00:45:13.000Z</time></trkpt>
        <trkpt lat="29.145642" lon="105.396127"><ele>401.91135</ele><time>2026-03-29T00:45:18.000Z</time></trkpt>
        <trkpt lat="29.145663" lon="105.396073"><ele>402.99353</ele><time>2026-03-29T00:45:24.000Z</time></trkpt>
        <trkpt lat="29.145636" lon="105.39602"><ele>403.63474</ele><time>2026-03-29T00:45:33.000Z</time></trkpt>
        <trkpt lat="29.14567" lon="105.396058"><ele>404.91776</ele><time>2026-03-29T00:46:14.000Z</time></trkpt>
        <trkpt lat="29.145708" lon="105.396076"><ele>404.85867</ele><time>2026-03-29T00:46:19.000Z</time></trkpt>
        <trkpt lat="29.14576" lon="105.396068"><ele>405.19672</ele><time>2026-03-29T00:46:27.000Z</time></trkpt>
        <trkpt lat="29.145809" lon="105.396062"><ele>405.45776</ele><time>2026-03-29T00:46:35.000Z</time></trkpt>
        <trkpt lat="29.145856" lon="105.396062"><ele>406.2458</ele><time>2026-03-29T00:46:41.000Z</time></trkpt>
        <trkpt lat="29.145899" lon="105.39603"><ele>408.8422</ele><time>2026-03-29T00:46:56.000Z</time></trkpt>
        <trkpt lat="29.145929" lon="105.395991"><ele>410.43436</ele><time>2026-03-29T00:47:25.000Z</time></trkpt>
        <trkpt lat="29.145945" lon="105.39594"><ele>410.92133</ele><time>2026-03-29T00:47:46.000Z</time></trkpt>
        <trkpt lat="29.145946" lon="105.39589"><ele>411.40698</ele><time>2026-03-29T00:47:55.000Z</time></trkpt>
        <trkpt lat="29.145923" lon="105.395836"><ele>411.0781</ele><time>2026-03-29T00:48:17.000Z</time></trkpt>
        <trkpt lat="29.145887" lon="105.395813"><ele>411.19016</ele><time>2026-03-29T00:48:23.000Z</time></trkpt>
        <trkpt lat="29.145841" lon="105.395776"><ele>411.55276</ele><time>2026-03-29T00:48:30.000Z</time></trkpt>
        <trkpt lat="29.145799" lon="105.395745"><ele>412.28033</ele><time>2026-03-29T00:48:41.000Z</time></trkpt>
        <trkpt lat="29.14575" lon="105.395759"><ele>413.8956</ele><time>2026-03-29T00:49:10.000Z</time></trkpt>
        <trkpt lat="29.145708" lon="105.395757"><ele>413.96188</ele><time>2026-03-29T00:49:17.000Z</time></trkpt>
        <trkpt lat="29.145657" lon="105.395744"><ele>413.61154</ele><time>2026-03-29T00:49:24.000Z</time></trkpt>
        <trkpt lat="29.145607" lon="105.395736"><ele>414.14124</ele><time>2026-03-29T00:49:31.000Z</time></trkpt>
        <trkpt lat="29.145558" lon="105.395736"><ele>413.42502</ele><time>2026-03-29T00:49:39.000Z</time></trkpt>
        <trkpt lat="29.145515" lon="105.395714"><ele>412.57953</ele><time>2026-03-29T00:49:52.000Z</time></trkpt>
        <trkpt lat="29.145486" lon="105.395679"><ele>412.5293</ele><time>2026-03-29T00:50:00.000Z</time></trkpt>
        <trkpt lat="29.145447" lon="105.395646"><ele>413.0969</ele><time>2026-03-29T00:50:09.000Z</time></trkpt>
        <trkpt lat="29.145421" lon="105.395598"><ele>413.30066</ele><time>2026-03-29T00:50:17.000Z</time></trkpt>
        <trkpt lat="29.145394" lon="105.395556"><ele>412.73267</ele><time>2026-03-29T00:50:24.000Z</time></trkpt>
        <trkpt lat="29.145385" lon="105.395504"><ele>413.3763</ele><time>2026-03-29T00:50:31.000Z</time></trkpt>
        <trkpt lat="29.145386" lon="105.395449"><ele>411.96844</ele><time>2026-03-29T00:50:39.000Z</time></trkpt>
        <trkpt lat="29.145415" lon="105.395405"><ele>412.87363</ele><time>2026-03-29T00:51:08.000Z</time></trkpt>
        <trkpt lat="29.145393" lon="105.39545"><ele>412.81488</ele><time>2026-03-29T00:51:28.000Z</time></trkpt>
        <trkpt lat="29.145438" lon="105.395426"><ele>415.35623</ele><time>2026-03-29T00:53:04.000Z</time></trkpt>
        <trkpt lat="29.145445" lon="105.395374"><ele>413.4145</ele><time>2026-03-29T00:53:17.000Z</time></trkpt>
        <trkpt lat="29.14548" lon="105.395338"><ele>413.91714</ele><time>2026-03-29T00:53:33.000Z</time></trkpt>
        <trkpt lat="29.145528" lon="105.395315"><ele>413.2394</ele><time>2026-03-29T00:53:55.000Z</time></trkpt>
        <trkpt lat="29.145543" lon="105.395261"><ele>416.5309</ele><time>2026-03-29T00:55:08.000Z</time></trkpt>
        <trkpt lat="29.145565" lon="105.395218"><ele>416.59073</ele><time>2026-03-29T00:55:18.000Z</time></trkpt>
        <trkpt lat="29.145609" lon="105.395191"><ele>416.89438</ele><time>2026-03-29T00:55:30.000Z</time></trkpt>
        <trkpt lat="29.145627" lon="105.395144"><ele>418.69666</ele><time>2026-03-29T00:55:39.000Z</time></trkpt>
        <trkpt lat="29.14567" lon="105.395126"><ele>419.7467</ele><time>2026-03-29T00:55:50.000Z</time></trkpt>
        <trkpt lat="29.145706" lon="105.395091"><ele>421.84653</ele><time>2026-03-29T00:56:00.000Z</time></trkpt>
        <trkpt lat="29.145746" lon="105.395064"><ele>423.40454</ele><time>2026-03-29T00:56:08.000Z</time></trkpt>
        <trkpt lat="29.145785" lon="105.395032"><ele>426.73734</ele><time>2026-03-29T00:56:20.000Z</time></trkpt>
        <trkpt lat="29.145821" lon="105.395002"><ele>427.18808</ele><time>2026-03-29T00:56:30.000Z</time></trkpt>
        <trkpt lat="29.145852" lon="105.394958"><ele>428.99268</ele><time>2026-03-29T00:56:45.000Z</time></trkpt>
        <trkpt lat="29.145879" lon="105.394915"><ele>431.6086</ele><time>2026-03-29T00:57:07.000Z</time></trkpt>
        <trkpt lat="29.145879" lon="105.394861"><ele>432.40485</ele><time>2026-03-29T00:57:22.000Z</time></trkpt>
        <trkpt lat="29.145859" lon="105.394813"><ele>433.3399</ele><time>2026-03-29T00:57:30.000Z</time></trkpt>
        <trkpt lat="29.145837" lon="105.39476"><ele>432.8322</ele><time>2026-03-29T00:57:40.000Z</time></trkpt>
        <trkpt lat="29.145809" lon="105.394721"><ele>433.06427</ele><time>2026-03-29T00:57:48.000Z</time></trkpt>
        <trkpt lat="29.145782" lon="105.394672"><ele>434.22427</ele><time>2026-03-29T00:58:32.000Z</time></trkpt>
        <trkpt lat="29.145783" lon="105.39461"><ele>431.97653</ele><time>2026-03-29T00:59:04.000Z</time></trkpt>
        <trkpt lat="29.145779" lon="105.394556"><ele>432.26706</ele><time>2026-03-29T00:59:31.000Z</time></trkpt>
        <trkpt lat="29.145781" lon="105.394503"><ele>435.54218</ele><time>2026-03-29T00:59:52.000Z</time></trkpt>
        <trkpt lat="29.145795" lon="105.394454"><ele>434.6512</ele><time>2026-03-29T01:00:03.000Z</time></trkpt>
        <trkpt lat="29.145801" lon="105.394399"><ele>435.9285</ele><time>2026-03-29T01:00:18.000Z</time></trkpt>
        <trkpt lat="29.145835" lon="105.39436"><ele>437.13843</ele><time>2026-03-29T01:00:40.000Z</time></trkpt>
        <trkpt lat="29.145862" lon="105.394319"><ele>439.51666</ele><time>2026-03-29T01:00:52.000Z</time></trkpt>
        <trkpt lat="29.145893" lon="105.39428"><ele>440.73273</ele><time>2026-03-29T01:01:03.000Z</time></trkpt>
        <trkpt lat="29.145923" lon="105.394242"><ele>441.89288</ele><time>2026-03-29T01:01:12.000Z</time></trkpt>
        <trkpt lat="29.145962" lon="105.394199"><ele>441.89523</ele><time>2026-03-29T01:01:25.000Z</time></trkpt>
        <trkpt lat="29.146009" lon="105.394179"><ele>443.0021</ele><time>2026-03-29T01:01:36.000Z</time></trkpt>
        <trkpt lat="29.146057" lon="105.394168"><ele>444.21216</ele><time>2026-03-29T01:01:45.000Z</time></trkpt>
        <trkpt lat="29.146105" lon="105.39415"><ele>444.3827</ele><time>2026-03-29T01:01:56.000Z</time></trkpt>
        <trkpt lat="29.146134" lon="105.394107"><ele>443.40854</ele><time>2026-03-29T01:02:08.000Z</time></trkpt>
        <trkpt lat="29.146091" lon="105.394126"><ele>442.01007</ele><time>2026-03-29T01:03:10.000Z</time></trkpt>
        <trkpt lat="29.146058" lon="105.394093"><ele>441.8782</ele><time>2026-03-29T01:03:27.000Z</time></trkpt>
        <trkpt lat="29.146031" lon="105.394053"><ele>441.94247</ele><time>2026-03-29T01:03:34.000Z</time></trkpt>
        <trkpt lat="29.146003" lon="105.394011"><ele>442.4234</ele><time>2026-03-29T01:03:41.000Z</time></trkpt>
        <trkpt lat="29.145963" lon="105.393979"><ele>443.62994</ele><time>2026-03-29T01:03:47.000Z</time></trkpt>
        <trkpt lat="29.145916" lon="105.393953"><ele>444.26462</ele><time>2026-03-29T01:03:55.000Z</time></trkpt>
        <trkpt lat="29.14587" lon="105.393933"><ele>444.56583</ele><time>2026-03-29T01:04:06.000Z</time></trkpt>
        <trkpt lat="29.145822" lon="105.393932"><ele>444.23557</ele><time>2026-03-29T01:04:37.000Z</time></trkpt>
        <trkpt lat="29.145778" lon="105.393918"><ele>445.02396</ele><time>2026-03-29T01:04:50.000Z</time></trkpt>
        <trkpt lat="29.145735" lon="105.39389"><ele>444.90286</ele><time>2026-03-29T01:05:04.000Z</time></trkpt>
        <trkpt lat="29.145701" lon="105.39386"><ele>444.25064</ele><time>2026-03-29T01:05:10.000Z</time></trkpt>
        <trkpt lat="29.145693" lon="105.3938"><ele>445.33594</ele><time>2026-03-29T01:05:20.000Z</time></trkpt>
        <trkpt lat="29.145718" lon="105.393757"><ele>448.37885</ele><time>2026-03-29T01:05:26.000Z</time></trkpt>
        <trkpt lat="29.145757" lon="105.393712"><ele>449.02075</ele><time>2026-03-29T01:05:33.000Z</time></trkpt>
        <trkpt lat="29.145792" lon="105.393669"><ele>449.68994</ele><time>2026-03-29T01:05:39.000Z</time></trkpt>
        <trkpt lat="29.145825" lon="105.393628"><ele>450.7353</ele><time>2026-03-29T01:05:46.000Z</time></trkpt>
        <trkpt lat="29.145863" lon="105.393593"><ele>450.62915</ele><time>2026-03-29T01:05:58.000Z</time></trkpt>
        <trkpt lat="29.145889" lon="105.393552"><ele>450.26874</ele><time>2026-03-29T01:06:04.000Z</time></trkpt>
        <trkpt lat="29.145925" lon="105.393509"><ele>450.11197</ele><time>2026-03-29T01:06:10.000Z</time></trkpt>
        <trkpt lat="29.145972" lon="105.393481"><ele>449.60382</ele><time>2026-03-29T01:06:17.000Z</time></trkpt>
        <trkpt lat="29.146018" lon="105.393475"><ele>450.13843</ele><time>2026-03-29T01:06:23.000Z</time></trkpt>
        <trkpt lat="29.146066" lon="105.393484"><ele>451.0459</ele><time>2026-03-29T01:06:30.000Z</time></trkpt>
        <trkpt lat="29.146109" lon="105.393477"><ele>451.4746</ele><time>2026-03-29T01:06:35.000Z</time></trkpt>
        <trkpt lat="29.146161" lon="105.393472"><ele>451.951</ele><time>2026-03-29T01:06:41.000Z</time></trkpt>
        <trkpt lat="29.146212" lon="105.393467"><ele>452.43787</ele><time>2026-03-29T01:06:48.000Z</time></trkpt>
        <trkpt lat="29.146258" lon="105.393469"><ele>452.85916</ele><time>2026-03-29T01:06:56.000Z</time></trkpt>
        <trkpt lat="29.146302" lon="105.393478"><ele>452.94827</ele><time>2026-03-29T01:07:03.000Z</time></trkpt>
        <trkpt lat="29.14635" lon="105.393491"><ele>453.3234</ele><time>2026-03-29T01:07:10.000Z</time></trkpt>
        <trkpt lat="29.146397" lon="105.393491"><ele>452.74493</ele><time>2026-03-29T01:07:17.000Z</time></trkpt>
        <trkpt lat="29.146441" lon="105.393489"><ele>452.6692</ele><time>2026-03-29T01:07:23.000Z</time></trkpt>
        <trkpt lat="29.146495" lon="105.393487"><ele>452.35046</ele><time>2026-03-29T01:07:30.000Z</time></trkpt>
        <trkpt lat="29.146546" lon="105.393473"><ele>452.1825</ele><time>2026-03-29T01:07:40.000Z</time></trkpt>
        <trkpt lat="29.146565" lon="105.393424"><ele>451.26224</ele><time>2026-03-29T01:08:56.000Z</time></trkpt>
        <trkpt lat="29.146586" lon="105.393376"><ele>450.8394</ele><time>2026-03-29T01:09:14.000Z</time></trkpt>
        <trkpt lat="29.146602" lon="105.393324"><ele>450.57718</ele><time>2026-03-29T01:09:45.000Z</time></trkpt>
        <trkpt lat="29.146608" lon="105.393275"><ele>450.94824</ele><time>2026-03-29T01:09:59.000Z</time></trkpt>
        <trkpt lat="29.146595" lon="105.393215"><ele>448.9487</ele><time>2026-03-29T01:11:15.000Z</time></trkpt>
        <trkpt lat="29.146578" lon="105.393177"><ele>447.32892</ele><time>2026-03-29T01:11:23.000Z</time></trkpt>
        <trkpt lat="29.146556" lon="105.393123"><ele>447.3548</ele><time>2026-03-29T01:11:33.000Z</time></trkpt>
        <trkpt lat="29.146541" lon="105.393068"><ele>447.1419</ele><time>2026-03-29T01:11:46.000Z</time></trkpt>
        <trkpt lat="29.146516" lon="105.393027"><ele>447.34854</ele><time>2026-03-29T01:11:54.000Z</time></trkpt>
        <trkpt lat="29.1465" lon="105.392978"><ele>447.48523</ele><time>2026-03-29T01:12:02.000Z</time></trkpt>
        <trkpt lat="29.146482" lon="105.392918"><ele>444.2163</ele><time>2026-03-29T01:12:15.000Z</time></trkpt>
        <trkpt lat="29.146477" lon="105.39287"><ele>444.92783</ele><time>2026-03-29T01:12:22.000Z</time></trkpt>
        <trkpt lat="29.146465" lon="105.392815"><ele>444.5353</ele><time>2026-03-29T01:12:34.000Z</time></trkpt>
        <trkpt lat="29.14645" lon="105.392766"><ele>442.9689</ele><time>2026-03-29T01:12:44.000Z</time></trkpt>
        <trkpt lat="29.146433" lon="105.392714"><ele>441.03598</ele><time>2026-03-29T01:12:53.000Z</time></trkpt>
        <trkpt lat="29.146422" lon="105.39266"><ele>441.21274</ele><time>2026-03-29T01:13:10.000Z</time></trkpt>
        <trkpt lat="29.14641" lon="105.392608"><ele>439.83557</ele><time>2026-03-29T01:13:19.000Z</time></trkpt>
        <trkpt lat="29.146395" lon="105.392552"><ele>437.08395</ele><time>2026-03-29T01:13:26.000Z</time></trkpt>
        <trkpt lat="29.146372" lon="105.392502"><ele>435.73578</ele><time>2026-03-29T01:13:31.000Z</time></trkpt>
        <trkpt lat="29.146347" lon="105.392449"><ele>435.54843</ele><time>2026-03-29T01:13:38.000Z</time></trkpt>
        <trkpt lat="29.146335" lon="105.392396"><ele>436.14798</ele><time>2026-03-29T01:13:47.000Z</time></trkpt>
        <trkpt lat="29.146313" lon="105.392348"><ele>436.3945</ele><time>2026-03-29T01:13:54.000Z</time></trkpt>
        <trkpt lat="29.146292" lon="105.392298"><ele>437.97083</ele><time>2026-03-29T01:14:00.000Z</time></trkpt>
        <trkpt lat="29.146269" lon="105.392246"><ele>437.63077</ele><time>2026-03-29T01:14:10.000Z</time></trkpt>
        <trkpt lat="29.146243" lon="105.392207"><ele>437.82806</ele><time>2026-03-29T01:14:17.000Z</time></trkpt>
        <trkpt lat="29.146212" lon="105.392163"><ele>439.16364</ele><time>2026-03-29T01:14:23.000Z</time></trkpt>
        <trkpt lat="29.146179" lon="105.392119"><ele>440.10367</ele><time>2026-03-29T01:14:29.000Z</time></trkpt>
        <trkpt lat="29.146164" lon="105.392066"><ele>441.90143</ele><time>2026-03-29T01:14:41.000Z</time></trkpt>
        <trkpt lat="29.146165" lon="105.392009"><ele>440.88397</ele><time>2026-03-29T01:15:00.000Z</time></trkpt>
        <trkpt lat="29.146141" lon="105.39196"><ele>438.60776</ele><time>2026-03-29T01:15:13.000Z</time></trkpt>
        <trkpt lat="29.146107" lon="105.391925"><ele>438.7917</ele><time>2026-03-29T01:15:24.000Z</time></trkpt>
        <trkpt lat="29.146081" lon="105.391878"><ele>438.19214</ele><time>2026-03-29T01:15:35.000Z</time></trkpt>
        <trkpt lat="29.146059" lon="105.391832"><ele>437.95776</ele><time>2026-03-29T01:15:42.000Z</time></trkpt>
        <trkpt lat="29.14603" lon="105.391784"><ele>437.77188</ele><time>2026-03-29T01:15:51.000Z</time></trkpt>
        <trkpt lat="29.145992" lon="105.391749"><ele>437.24152</ele><time>2026-03-29T01:16:00.000Z</time></trkpt>
        <trkpt lat="29.145944" lon="105.391717"><ele>438.13486</ele><time>2026-03-29T01:16:12.000Z</time></trkpt>
        <trkpt lat="29.145933" lon="105.391666"><ele>440.0121</ele><time>2026-03-29T01:16:32.000Z</time></trkpt>
        <trkpt lat="29.145903" lon="105.391624"><ele>441.0101</ele><time>2026-03-29T01:16:45.000Z</time></trkpt>
        <trkpt lat="29.145863" lon="105.391587"><ele>441.9591</ele><time>2026-03-29T01:16:56.000Z</time></trkpt>
        <trkpt lat="29.145835" lon="105.391546"><ele>442.64008</ele><time>2026-03-29T01:17:05.000Z</time></trkpt>
        <trkpt lat="29.145801" lon="105.391508"><ele>443.02106</ele><time>2026-03-29T01:17:14.000Z</time></trkpt>
        <trkpt lat="29.145779" lon="105.391464"><ele>442.42703</ele><time>2026-03-29T01:17:22.000Z</time></trkpt>
        <trkpt lat="29.145742" lon="105.391437"><ele>441.70615</ele><time>2026-03-29T01:17:27.000Z</time></trkpt>
        <trkpt lat="29.145687" lon="105.391415"><ele>440.30603</ele><time>2026-03-29T01:17:43.000Z</time></trkpt>
        <trkpt lat="29.145648" lon="105.391393"><ele>440.51373</ele><time>2026-03-29T01:17:49.000Z</time></trkpt>
        <trkpt lat="29.14562" lon="105.39135"><ele>443.07394</ele><time>2026-03-29T01:17:54.000Z</time></trkpt>
        <trkpt lat="29.145588" lon="105.391299"><ele>445.6941</ele><time>2026-03-29T01:18:01.000Z</time></trkpt>
        <trkpt lat="29.145576" lon="105.391254"><ele>446.86832</ele><time>2026-03-29T01:18:05.000Z</time></trkpt>
        <trkpt lat="29.145568" lon="105.391198"><ele>447.78174</ele><time>2026-03-29T01:18:09.000Z</time></trkpt>
        <trkpt lat="29.145544" lon="105.391139"><ele>448.19363</ele><time>2026-03-29T01:18:15.000Z</time></trkpt>
        <trkpt lat="29.1455" lon="105.39111"><ele>450.10297</ele><time>2026-03-29T01:18:34.000Z</time></trkpt>
        <trkpt lat="29.145536" lon="105.391083"><ele>448.07745</ele><time>2026-03-29T01:18:56.000Z</time></trkpt>
        <trkpt lat="29.145565" lon="105.391039"><ele>448.5071</ele><time>2026-03-29T01:19:03.000Z</time></trkpt>
        <trkpt lat="29.1456" lon="105.391009"><ele>448.11563</ele><time>2026-03-29T01:19:08.000Z</time></trkpt>
        <trkpt lat="29.145609" lon="105.390953"><ele>443.78122</ele><time>2026-03-29T01:19:27.000Z</time></trkpt>
        <trkpt lat="29.14561" lon="105.390903"><ele>443.30826</ele><time>2026-03-29T01:19:37.000Z</time></trkpt>
        <trkpt lat="29.145595" lon="105.390848"><ele>445.04</ele><time>2026-03-29T01:20:13.000Z</time></trkpt>
        <trkpt lat="29.145569" lon="105.390801"><ele>443.23093</ele><time>2026-03-29T01:20:36.000Z</time></trkpt>
        <trkpt lat="29.145553" lon="105.39075"><ele>440.8031</ele><time>2026-03-29T01:21:24.000Z</time></trkpt>
        <trkpt lat="29.145542" lon="105.390708"><ele>439.97415</ele><time>2026-03-29T01:21:31.000Z</time></trkpt>
        <trkpt lat="29.145513" lon="105.390643"><ele>438.2015</ele><time>2026-03-29T01:21:38.000Z</time></trkpt>
        <trkpt lat="29.145496" lon="105.390591"><ele>438.61923</ele><time>2026-03-29T01:21:43.000Z</time></trkpt>
        <trkpt lat="29.145474" lon="105.390545"><ele>438.4234</ele><time>2026-03-29T01:21:48.000Z</time></trkpt>
        <trkpt lat="29.145453" lon="105.390484"><ele>439.09235</ele><time>2026-03-29T01:22:02.000Z</time></trkpt>
        <trkpt lat="29.145434" lon="105.390444"><ele>440.12436</ele><time>2026-03-29T01:22:08.000Z</time></trkpt>
        <trkpt lat="29.145415" lon="105.390392"><ele>440.67334</ele><time>2026-03-29T01:22:14.000Z</time></trkpt>
        <trkpt lat="29.145421" lon="105.390346"><ele>441.374</ele><time>2026-03-29T01:22:18.000Z</time></trkpt>
        <trkpt lat="29.14545" lon="105.390298"><ele>441.0839</ele><time>2026-03-29T01:22:23.000Z</time></trkpt>
        <trkpt lat="29.145472" lon="105.390239"><ele>432.79633</ele><time>2026-03-29T01:22:40.000Z</time></trkpt>
        <trkpt lat="29.145482" lon="105.390208"><ele>433.92612</ele><time>2026-03-29T01:22:43.000Z</time></trkpt>
        <trkpt lat="29.145495" lon="105.390149"><ele>435.9131</ele><time>2026-03-29T01:22:48.000Z</time></trkpt>
        <trkpt lat="29.145494" lon="105.390079"><ele>435.2676</ele><time>2026-03-29T01:22:54.000Z</time></trkpt>
        <trkpt lat="29.145491" lon="105.390018"><ele>435.93484</ele><time>2026-03-29T01:23:05.000Z</time></trkpt>
        <trkpt lat="29.145453" lon="105.389985"><ele>431.54312</ele><time>2026-03-29T01:23:35.000Z</time></trkpt>
        <trkpt lat="29.145426" lon="105.389952"><ele>432.12164</ele><time>2026-03-29T01:23:41.000Z</time></trkpt>
        <trkpt lat="29.145398" lon="105.389907"><ele>433.24597</ele><time>2026-03-29T01:23:46.000Z</time></trkpt>
        <trkpt lat="29.145367" lon="105.389858"><ele>433.4461</ele><time>2026-03-29T01:23:52.000Z</time></trkpt>
        <trkpt lat="29.145331" lon="105.389818"><ele>434.0693</ele><time>2026-03-29T01:23:57.000Z</time></trkpt>
        <trkpt lat="29.145296" lon="105.389771"><ele>434.87167</ele><time>2026-03-29T01:24:02.000Z</time></trkpt>
        <trkpt lat="29.145259" lon="105.389728"><ele>435.10715</ele><time>2026-03-29T01:24:07.000Z</time></trkpt>
        <trkpt lat="29.14523" lon="105.389681"><ele>433.5886</ele><time>2026-03-29T01:24:12.000Z</time></trkpt>
        <trkpt lat="29.145195" lon="105.389636"><ele>432.9622</ele><time>2026-03-29T01:24:17.000Z</time></trkpt>
        <trkpt lat="29.145165" lon="105.389592"><ele>433.10007</ele><time>2026-03-29T01:24:22.000Z</time></trkpt>
        <trkpt lat="29.145137" lon="105.389553"><ele>433.40616</ele><time>2026-03-29T01:24:26.000Z</time></trkpt>
        <trkpt lat="29.145108" lon="105.389499"><ele>433.3066</ele><time>2026-03-29T01:24:31.000Z</time></trkpt>
        <trkpt lat="29.145085" lon="105.389443"><ele>432.84274</ele><time>2026-03-29T01:24:36.000Z</time></trkpt>
        <trkpt lat="29.145059" lon="105.389395"><ele>432.83292</ele><time>2026-03-29T01:24:40.000Z</time></trkpt>
        <trkpt lat="29.145032" lon="105.389345"><ele>433.801</ele><time>2026-03-29T01:24:45.000Z</time></trkpt>
        <trkpt lat="29.145012" lon="105.38929"><ele>434.0836</ele><time>2026-03-29T01:24:50.000Z</time></trkpt>
        <trkpt lat="29.145013" lon="105.389239"><ele>434.29544</ele><time>2026-03-29T01:24:54.000Z</time></trkpt>
        <trkpt lat="29.145026" lon="105.389181"><ele>434.40875</ele><time>2026-03-29T01:24:59.000Z</time></trkpt>
        <trkpt lat="29.14506" lon="105.389135"><ele>434.16162</ele><time>2026-03-29T01:25:04.000Z</time></trkpt>
        <trkpt lat="29.145113" lon="105.389118"><ele>433.78375</ele><time>2026-03-29T01:25:10.000Z</time></trkpt>
        <trkpt lat="29.145175" lon="105.389119"><ele>432.28088</ele><time>2026-03-29T01:25:21.000Z</time></trkpt>
        <trkpt lat="29.145224" lon="105.389106"><ele>432.08212</ele><time>2026-03-29T01:25:27.000Z</time></trkpt>
        <trkpt lat="29.14526" lon="105.389069"><ele>432.0724</ele><time>2026-03-29T01:25:31.000Z</time></trkpt>
        <trkpt lat="29.145298" lon="105.389015"><ele>431.80814</ele><time>2026-03-29T01:25:37.000Z</time></trkpt>
        <trkpt lat="29.145327" lon="105.388957"><ele>431.44064</ele><time>2026-03-29T01:25:42.000Z</time></trkpt>
        <trkpt lat="29.145359" lon="105.388904"><ele>432.5394</ele><time>2026-03-29T01:25:46.000Z</time></trkpt>
        <trkpt lat="29.14539" lon="105.388849"><ele>432.98224</ele><time>2026-03-29T01:25:51.000Z</time></trkpt>
        <trkpt lat="29.145418" lon="105.388794"><ele>433.55157</ele><time>2026-03-29T01:25:56.000Z</time></trkpt>
        <trkpt lat="29.145433" lon="105.388732"><ele>432.72217</ele><time>2026-03-29T01:26:02.000Z</time></trkpt>
        <trkpt lat="29.145402" lon="105.388689"><ele>432.13773</ele><time>2026-03-29T01:26:11.000Z</time></trkpt>
        <trkpt lat="29.145426" lon="105.388735"><ele>432.25162</ele><time>2026-03-29T01:28:44.000Z</time></trkpt>
        <trkpt lat="29.145457" lon="105.388778"><ele>431.68546</ele><time>2026-03-29T01:28:58.000Z</time></trkpt>
        <trkpt lat="29.145477" lon="105.388729"><ele>431.4628</ele><time>2026-03-29T01:29:22.000Z</time></trkpt>
        <trkpt lat="29.145472" lon="105.388673"><ele>430.13916</ele><time>2026-03-29T01:29:32.000Z</time></trkpt>
        <trkpt lat="29.14546" lon="105.388634"><ele>429.7943</ele><time>2026-03-29T01:29:35.000Z</time></trkpt>
        <trkpt lat="29.145423" lon="105.388578"><ele>427.921</ele><time>2026-03-29T01:29:41.000Z</time></trkpt>
        <trkpt lat="29.145399" lon="105.388522"><ele>426.3448</ele><time>2026-03-29T01:29:46.000Z</time></trkpt>
        <trkpt lat="29.145418" lon="105.388472"><ele>425.16595</ele><time>2026-03-29T01:29:52.000Z</time></trkpt>
        <trkpt lat="29.145478" lon="105.388482"><ele>422.95224</ele><time>2026-03-29T01:30:05.000Z</time></trkpt>
        <trkpt lat="29.145524" lon="105.388518"><ele>423.08902</ele><time>2026-03-29T01:30:11.000Z</time></trkpt>
        <trkpt lat="29.145564" lon="105.388488"><ele>419.96692</ele><time>2026-03-29T01:30:20.000Z</time></trkpt>
        <trkpt lat="29.145577" lon="105.38843"><ele>418.37302</ele><time>2026-03-29T01:30:27.000Z</time></trkpt>
        <trkpt lat="29.145614" lon="105.388397"><ele>417.61865</ele><time>2026-03-29T01:30:35.000Z</time></trkpt>
        <trkpt lat="29.145657" lon="105.388369"><ele>417.0825</ele><time>2026-03-29T01:30:41.000Z</time></trkpt>
        <trkpt lat="29.145689" lon="105.388318"><ele>415.6288</ele><time>2026-03-29T01:30:55.000Z</time></trkpt>
        <trkpt lat="29.145728" lon="105.388296"><ele>413.19513</ele><time>2026-03-29T01:31:02.000Z</time></trkpt>
        <trkpt lat="29.145756" lon="105.388262"><ele>412.2957</ele><time>2026-03-29T01:31:06.000Z</time></trkpt>
        <trkpt lat="29.14578" lon="105.388205"><ele>411.78415</ele><time>2026-03-29T01:31:11.000Z</time></trkpt>
        <trkpt lat="29.145822" lon="105.388158"><ele>411.0153</ele><time>2026-03-29T01:31:18.000Z</time></trkpt>
        <trkpt lat="29.145858" lon="105.388123"><ele>410.72516</ele><time>2026-03-29T01:31:24.000Z</time></trkpt>
        <trkpt lat="29.145892" lon="105.38808"><ele>411.31476</ele><time>2026-03-29T01:31:30.000Z</time></trkpt>
        <trkpt lat="29.145922" lon="105.388038"><ele>411.5692</ele><time>2026-03-29T01:31:35.000Z</time></trkpt>
        <trkpt lat="29.14596" lon="105.388024"><ele>411.64835</ele><time>2026-03-29T01:31:39.000Z</time></trkpt>
        <trkpt lat="29.146012" lon="105.388041"><ele>411.5999</ele><time>2026-03-29T01:31:44.000Z</time></trkpt>
        <trkpt lat="29.146066" lon="105.388061"><ele>411.74356</ele><time>2026-03-29T01:31:52.000Z</time></trkpt>
        <trkpt lat="29.146112" lon="105.388076"><ele>412.33405</ele><time>2026-03-29T01:31:58.000Z</time></trkpt>
        <trkpt lat="29.146155" lon="105.388087"><ele>412.21185</ele><time>2026-03-29T01:32:03.000Z</time></trkpt>
        <trkpt lat="29.146207" lon="105.388101"><ele>412.31595</ele><time>2026-03-29T01:32:11.000Z</time></trkpt>
        <trkpt lat="29.146237" lon="105.388132"><ele>411.5731</ele><time>2026-03-29T01:32:16.000Z</time></trkpt>
        <trkpt lat="29.146274" lon="105.388178"><ele>412.00558</ele><time>2026-03-29T01:32:23.000Z</time></trkpt>
        <trkpt lat="29.146322" lon="105.388196"><ele>413.7742</ele><time>2026-03-29T01:32:33.000Z</time></trkpt>
        <trkpt lat="29.146367" lon="105.388211"><ele>414.7852</ele><time>2026-03-29T01:32:38.000Z</time></trkpt>
        <trkpt lat="29.1464" lon="105.388259"><ele>416.28763</ele><time>2026-03-29T01:32:44.000Z</time></trkpt>
        <trkpt lat="29.14644" lon="105.388299"><ele>417.3438</ele><time>2026-03-29T01:32:52.000Z</time></trkpt>
        <trkpt lat="29.14648" lon="105.388339"><ele>419.206</ele><time>2026-03-29T01:33:01.000Z</time></trkpt>
        <trkpt lat="29.146505" lon="105.388385"><ele>420.3742</ele><time>2026-03-29T01:33:07.000Z</time></trkpt>
        <trkpt lat="29.14653" lon="105.38843"><ele>420.80716</ele><time>2026-03-29T01:33:12.000Z</time></trkpt>
        <trkpt lat="29.146562" lon="105.388472"><ele>421.91782</ele><time>2026-03-29T01:33:17.000Z</time></trkpt>
        <trkpt lat="29.146608" lon="105.388494"><ele>421.06036</ele><time>2026-03-29T01:33:24.000Z</time></trkpt>
        <trkpt lat="29.146639" lon="105.388528"><ele>421.9025</ele><time>2026-03-29T01:33:29.000Z</time></trkpt>
        <trkpt lat="29.146669" lon="105.38857"><ele>422.90765</ele><time>2026-03-29T01:33:34.000Z</time></trkpt>
        <trkpt lat="29.146693" lon="105.38862"><ele>422.60645</ele><time>2026-03-29T01:33:39.000Z</time></trkpt>
        <trkpt lat="29.146709" lon="105.388672"><ele>422.7584</ele><time>2026-03-29T01:33:44.000Z</time></trkpt>
        <trkpt lat="29.146721" lon="105.388729"><ele>420.89816</ele><time>2026-03-29T01:33:52.000Z</time></trkpt>
        <trkpt lat="29.146734" lon="105.388777"><ele>420.0012</ele><time>2026-03-29T01:33:58.000Z</time></trkpt>
        <trkpt lat="29.146746" lon="105.38883"><ele>418.5213</ele><time>2026-03-29T01:34:05.000Z</time></trkpt>
        <trkpt lat="29.146764" lon="105.388885"><ele>416.9015</ele><time>2026-03-29T01:34:13.000Z</time></trkpt>
        <trkpt lat="29.146782" lon="105.388939"><ele>415.76123</ele><time>2026-03-29T01:34:20.000Z</time></trkpt>
        <trkpt lat="29.146812" lon="105.388992"><ele>415.88678</ele><time>2026-03-29T01:34:27.000Z</time></trkpt>
        <trkpt lat="29.14685" lon="105.389034"><ele>415.9597</ele><time>2026-03-29T01:34:32.000Z</time></trkpt>
        <trkpt lat="29.146869" lon="105.389095"><ele>416.38306</ele><time>2026-03-29T01:34:38.000Z</time></trkpt>
        <trkpt lat="29.146888" lon="105.389151"><ele>416.54834</ele><time>2026-03-29T01:34:42.000Z</time></trkpt>
        <trkpt lat="29.146904" lon="105.389198"><ele>416.9598</ele><time>2026-03-29T01:34:45.000Z</time></trkpt>
        <trkpt lat="29.146934" lon="105.38925"><ele>417.34427</ele><time>2026-03-29T01:34:50.000Z</time></trkpt>
        <trkpt lat="29.146965" lon="105.389302"><ele>416.32803</ele><time>2026-03-29T01:34:57.000Z</time></trkpt>
        <trkpt lat="29.147003" lon="105.38931"><ele>415.79022</ele><time>2026-03-29T01:35:01.000Z</time></trkpt>
        <trkpt lat="29.147058" lon="105.389336"><ele>415.9984</ele><time>2026-03-29T01:35:10.000Z</time></trkpt>
        <trkpt lat="29.147088" lon="105.389368"><ele>416.4069</ele><time>2026-03-29T01:35:15.000Z</time></trkpt>
        <trkpt lat="29.14713" lon="105.389401"><ele>416.00125</ele><time>2026-03-29T01:35:20.000Z</time></trkpt>
        <trkpt lat="29.147178" lon="105.389431"><ele>415.69498</ele><time>2026-03-29T01:35:25.000Z</time></trkpt>
        <trkpt lat="29.147225" lon="105.389458"><ele>415.73184</ele><time>2026-03-29T01:35:31.000Z</time></trkpt>
        <trkpt lat="29.147268" lon="105.389489"><ele>415.7402</ele><time>2026-03-29T01:35:38.000Z</time></trkpt>
        <trkpt lat="29.147299" lon="105.389523"><ele>415.1504</ele><time>2026-03-29T01:35:43.000Z</time></trkpt>
        <trkpt lat="29.147333" lon="105.389559"><ele>414.7129</ele><time>2026-03-29T01:35:48.000Z</time></trkpt>
        <trkpt lat="29.147377" lon="105.389589"><ele>412.91605</ele><time>2026-03-29T01:35:57.000Z</time></trkpt>
        <trkpt lat="29.147414" lon="105.389618"><ele>412.56192</ele><time>2026-03-29T01:36:11.000Z</time></trkpt>
        <trkpt lat="29.147442" lon="105.389647"><ele>412.31332</ele><time>2026-03-29T01:36:16.000Z</time></trkpt>
        <trkpt lat="29.147481" lon="105.389685"><ele>412.53137</ele><time>2026-03-29T01:36:23.000Z</time></trkpt>
        <trkpt lat="29.147529" lon="105.389713"><ele>412.11533</ele><time>2026-03-29T01:36:31.000Z</time></trkpt>
        <trkpt lat="29.147575" lon="105.389727"><ele>412.5679</ele><time>2026-03-29T01:36:52.000Z</time></trkpt>
        <trkpt lat="29.147618" lon="105.38974"><ele>410.5566</ele><time>2026-03-29T01:37:05.000Z</time></trkpt>
        <trkpt lat="29.147652" lon="105.389768"><ele>410.742</ele><time>2026-03-29T01:37:10.000Z</time></trkpt>
        <trkpt lat="29.147699" lon="105.389782"><ele>409.24274</ele><time>2026-03-29T01:37:15.000Z</time></trkpt>
        <trkpt lat="29.14772" lon="105.389822"><ele>409.74197</ele><time>2026-03-29T01:37:19.000Z</time></trkpt>
        <trkpt lat="29.147747" lon="105.389878"><ele>410.7937</ele><time>2026-03-29T01:37:28.000Z</time></trkpt>
        <trkpt lat="29.147772" lon="105.389925"><ele>410.8416</ele><time>2026-03-29T01:37:43.000Z</time></trkpt>
        <trkpt lat="29.147809" lon="105.389948"><ele>409.58444</ele><time>2026-03-29T01:37:49.000Z</time></trkpt>
        <trkpt lat="29.147856" lon="105.389977"><ele>409.16983</ele><time>2026-03-29T01:37:56.000Z</time></trkpt>
        <trkpt lat="29.147904" lon="105.389995"><ele>408.68546</ele><time>2026-03-29T01:38:01.000Z</time></trkpt>
        <trkpt lat="29.147954" lon="105.390018"><ele>406.4764</ele><time>2026-03-29T01:38:08.000Z</time></trkpt>
        <trkpt lat="29.147994" lon="105.390041"><ele>403.9169</ele><time>2026-03-29T01:38:14.000Z</time></trkpt>
        <trkpt lat="29.148038" lon="105.390049"><ele>403.17615</ele><time>2026-03-29T01:38:20.000Z</time></trkpt>
        <trkpt lat="29.14808" lon="105.390037"><ele>403.61356</ele><time>2026-03-29T01:38:24.000Z</time></trkpt>
        <trkpt lat="29.148112" lon="105.389993"><ele>404.1078</ele><time>2026-03-29T01:38:28.000Z</time></trkpt>
        <trkpt lat="29.148155" lon="105.389972"><ele>404.55588</ele><time>2026-03-29T01:38:32.000Z</time></trkpt>
        <trkpt lat="29.148201" lon="105.38996"><ele>404.47113</ele><time>2026-03-29T01:38:36.000Z</time></trkpt>
        <trkpt lat="29.148258" lon="105.389964"><ele>404.32635</ele><time>2026-03-29T01:38:44.000Z</time></trkpt>
        <trkpt lat="29.148306" lon="105.38998"><ele>406.3356</ele><time>2026-03-29T01:39:00.000Z</time></trkpt>
        <trkpt lat="29.148352" lon="105.38998"><ele>408.42825</ele><time>2026-03-29T01:39:09.000Z</time></trkpt>
        <trkpt lat="29.1484" lon="105.389972"><ele>408.8726</ele><time>2026-03-29T01:39:16.000Z</time></trkpt>
        <trkpt lat="29.148454" lon="105.389965"><ele>409.58942</ele><time>2026-03-29T01:39:22.000Z</time></trkpt>
        <trkpt lat="29.148512" lon="105.389961"><ele>411.2516</ele><time>2026-03-29T01:39:29.000Z</time></trkpt>
        <trkpt lat="29.148562" lon="105.389948"><ele>412.5236</ele><time>2026-03-29T01:39:35.000Z</time></trkpt>
        <trkpt lat="29.148606" lon="105.389938"><ele>414.00497</ele><time>2026-03-29T01:39:40.000Z</time></trkpt>
        <trkpt lat="29.148656" lon="105.389926"><ele>415.67178</ele><time>2026-03-29T01:39:47.000Z</time></trkpt>
        <trkpt lat="29.148705" lon="105.389915"><ele>416.11948</ele><time>2026-03-29T01:39:56.000Z</time></trkpt>
        <trkpt lat="29.148751" lon="105.389922"><ele>415.5736</ele><time>2026-03-29T01:40:02.000Z</time></trkpt>
        <trkpt lat="29.148807" lon="105.389932"><ele>415.23633</ele><time>2026-03-29T01:40:14.000Z</time></trkpt>
        <trkpt lat="29.148852" lon="105.389945"><ele>415.4683</ele><time>2026-03-29T01:40:36.000Z</time></trkpt>
        <trkpt lat="29.14889" lon="105.389954"><ele>414.8756</ele><time>2026-03-29T01:40:42.000Z</time></trkpt>
        <trkpt lat="29.148946" lon="105.389944"><ele>414.15634</ele><time>2026-03-29T01:41:04.000Z</time></trkpt>
        <trkpt lat="29.148979" lon="105.389919"><ele>413.04935</ele><time>2026-03-29T01:41:11.000Z</time></trkpt>
        <trkpt lat="29.149026" lon="105.389913"><ele>411.8441</ele><time>2026-03-29T01:41:17.000Z</time></trkpt>
        <trkpt lat="29.149069" lon="105.38991"><ele>410.98752</ele><time>2026-03-29T01:41:21.000Z</time></trkpt>
        <trkpt lat="29.149115" lon="105.389906"><ele>410.88748</ele><time>2026-03-29T01:41:25.000Z</time></trkpt>
        <trkpt lat="29.149163" lon="105.38992"><ele>410.77692</ele><time>2026-03-29T01:41:30.000Z</time></trkpt>
        <trkpt lat="29.149196" lon="105.389969"><ele>411.0208</ele><time>2026-03-29T01:41:38.000Z</time></trkpt>
        <trkpt lat="29.149225" lon="105.390014"><ele>410.18417</ele><time>2026-03-29T01:42:00.000Z</time></trkpt>
        <trkpt lat="29.149262" lon="105.39004"><ele>408.84985</ele><time>2026-03-29T01:42:08.000Z</time></trkpt>
        <trkpt lat="29.149307" lon="105.390065"><ele>408.85724</ele><time>2026-03-29T01:42:14.000Z</time></trkpt>
        <trkpt lat="29.14936" lon="105.390074"><ele>408.01086</ele><time>2026-03-29T01:42:21.000Z</time></trkpt>
        <trkpt lat="29.149411" lon="105.390083"><ele>406.99625</ele><time>2026-03-29T01:42:28.000Z</time></trkpt>
        <trkpt lat="29.149459" lon="105.390093"><ele>405.50128</ele><time>2026-03-29T01:42:35.000Z</time></trkpt>
        <trkpt lat="29.149503" lon="105.390102"><ele>404.0388</ele><time>2026-03-29T01:42:41.000Z</time></trkpt>
        <trkpt lat="29.149557" lon="105.39012"><ele>402.2363</ele><time>2026-03-29T01:42:49.000Z</time></trkpt>
        <trkpt lat="29.149606" lon="105.390132"><ele>400.30234</ele><time>2026-03-29T01:42:56.000Z</time></trkpt>
        <trkpt lat="29.149648" lon="105.390153"><ele>398.04874</ele><time>2026-03-29T01:43:03.000Z</time></trkpt>
        <trkpt lat="29.149687" lon="105.390183"><ele>396.79044</ele><time>2026-03-29T01:43:09.000Z</time></trkpt>
        <trkpt lat="29.149733" lon="105.390211"><ele>394.96832</ele><time>2026-03-29T01:43:16.000Z</time></trkpt>
        <trkpt lat="29.14977" lon="105.390235"><ele>393.32788</ele><time>2026-03-29T01:43:21.000Z</time></trkpt>
        <trkpt lat="29.149814" lon="105.390263"><ele>392.08987</ele><time>2026-03-29T01:43:27.000Z</time></trkpt>
        <trkpt lat="29.149861" lon="105.390262"><ele>390.98666</ele><time>2026-03-29T01:43:34.000Z</time></trkpt>
        <trkpt lat="29.149907" lon="105.39025"><ele>389.91345</ele><time>2026-03-29T01:43:42.000Z</time></trkpt>
        <trkpt lat="29.149952" lon="105.390236"><ele>389.0248</ele><time>2026-03-29T01:43:48.000Z</time></trkpt>
        <trkpt lat="29.149994" lon="105.390205"><ele>388.6927</ele><time>2026-03-29T01:43:57.000Z</time></trkpt>
        <trkpt lat="29.150036" lon="105.390177"><ele>388.25345</ele><time>2026-03-29T01:44:07.000Z</time></trkpt>
        <trkpt lat="29.150077" lon="105.390144"><ele>385.918</ele><time>2026-03-29T01:44:19.000Z</time></trkpt>
        <trkpt lat="29.150105" lon="105.390105"><ele>385.7425</ele><time>2026-03-29T01:44:26.000Z</time></trkpt>
        <trkpt lat="29.150131" lon="105.39006"><ele>385.97897</ele><time>2026-03-29T01:44:31.000Z</time></trkpt>
        <trkpt lat="29.150163" lon="105.390011"><ele>386.2121</ele><time>2026-03-29T01:44:38.000Z</time></trkpt>
        <trkpt lat="29.150183" lon="105.389962"><ele>385.72495</ele><time>2026-03-29T01:44:45.000Z</time></trkpt>
        <trkpt lat="29.150205" lon="105.389915"><ele>383.86365</ele><time>2026-03-29T01:44:52.000Z</time></trkpt>
        <trkpt lat="29.15022" lon="105.389865"><ele>382.90915</ele><time>2026-03-29T01:44:58.000Z</time></trkpt>
        <trkpt lat="29.150248" lon="105.389816"><ele>381.58307</ele><time>2026-03-29T01:45:06.000Z</time></trkpt>
        <trkpt lat="29.150263" lon="105.389764"><ele>380.17957</ele><time>2026-03-29T01:45:13.000Z</time></trkpt>
        <trkpt lat="29.150285" lon="105.389716"><ele>378.10474</ele><time>2026-03-29T01:45:21.000Z</time></trkpt>
        <trkpt lat="29.150306" lon="105.389665"><ele>376.99994</ele><time>2026-03-29T01:45:27.000Z</time></trkpt>
        <trkpt lat="29.150332" lon="105.389612"><ele>376.03217</ele><time>2026-03-29T01:45:33.000Z</time></trkpt>
        <trkpt lat="29.150353" lon="105.389554"><ele>372.97385</ele><time>2026-03-29T01:45:41.000Z</time></trkpt>
        <trkpt lat="29.150375" lon="105.389509"><ele>371.8669</ele><time>2026-03-29T01:45:47.000Z</time></trkpt>
        <trkpt lat="29.15041" lon="105.389468"><ele>370.50174</ele><time>2026-03-29T01:45:54.000Z</time></trkpt>
        <trkpt lat="29.150458" lon="105.389438"><ele>367.80072</ele><time>2026-03-29T01:46:04.000Z</time></trkpt>
        <trkpt lat="29.150503" lon="105.389412"><ele>365.1628</ele><time>2026-03-29T01:46:13.000Z</time></trkpt>
        <trkpt lat="29.150557" lon="105.389397"><ele>363.7765</ele><time>2026-03-29T01:46:21.000Z</time></trkpt>
        <trkpt lat="29.150615" lon="105.389373"><ele>361.3351</ele><time>2026-03-29T01:46:28.000Z</time></trkpt>
        <trkpt lat="29.150658" lon="105.389344"><ele>360.33432</ele><time>2026-03-29T01:46:33.000Z</time></trkpt>
        <trkpt lat="29.150694" lon="105.389296"><ele>359.11038</ele><time>2026-03-29T01:46:40.000Z</time></trkpt>
        <trkpt lat="29.150727" lon="105.38926"><ele>358.7271</ele><time>2026-03-29T01:46:45.000Z</time></trkpt>
        <trkpt lat="29.150762" lon="105.389212"><ele>357.4015</ele><time>2026-03-29T01:46:53.000Z</time></trkpt>
        <trkpt lat="29.150794" lon="105.389189"><ele>356.81976</ele><time>2026-03-29T01:46:57.000Z</time></trkpt>
        <trkpt lat="29.150845" lon="105.389169"><ele>355.4402</ele><time>2026-03-29T01:47:13.000Z</time></trkpt>
        <trkpt lat="29.150878" lon="105.389135"><ele>354.3327</ele><time>2026-03-29T01:47:19.000Z</time></trkpt>
        <trkpt lat="29.150911" lon="105.389089"><ele>353.7004</ele><time>2026-03-29T01:47:24.000Z</time></trkpt>
        <trkpt lat="29.150955" lon="105.389049"><ele>350.75974</ele><time>2026-03-29T01:47:31.000Z</time></trkpt>
        <trkpt lat="29.150989" lon="105.389015"><ele>348.48297</ele><time>2026-03-29T01:47:37.000Z</time></trkpt>
        <trkpt lat="29.151025" lon="105.388981"><ele>347.47366</ele><time>2026-03-29T01:47:42.000Z</time></trkpt>
        <trkpt lat="29.151057" lon="105.388937"><ele>347.12747</ele><time>2026-03-29T01:47:46.000Z</time></trkpt>
        <trkpt lat="29.151087" lon="105.38889"><ele>346.835</ele><time>2026-03-29T01:47:50.000Z</time></trkpt>
        <trkpt lat="29.151076" lon="105.388839"><ele>346.8036</ele><time>2026-03-29T01:47:55.000Z</time></trkpt>
        <trkpt lat="29.151058" lon="105.388786"><ele>346.5633</ele><time>2026-03-29T01:48:00.000Z</time></trkpt>
        <trkpt lat="29.151069" lon="105.388835"><ele>344.872</ele><time>2026-03-29T01:48:17.000Z</time></trkpt>
        <trkpt lat="29.151114" lon="105.388838"><ele>344.90607</ele><time>2026-03-29T01:48:31.000Z</time></trkpt>
        <trkpt lat="29.151133" lon="105.388781"><ele>344.1071</ele><time>2026-03-29T01:48:41.000Z</time></trkpt>
        <trkpt lat="29.151133" lon="105.388727"><ele>344.00504</ele><time>2026-03-29T01:48:50.000Z</time></trkpt>
        <trkpt lat="29.151104" lon="105.388683"><ele>343.54895</ele><time>2026-03-29T01:49:03.000Z</time></trkpt>
        <trkpt lat="29.151074" lon="105.388647"><ele>343.5729</ele><time>2026-03-29T01:49:10.000Z</time></trkpt>
        <trkpt lat="29.151025" lon="105.388618"><ele>345.2168</ele><time>2026-03-29T01:49:18.000Z</time></trkpt>
        <trkpt lat="29.150974" lon="105.388635"><ele>346.17545</ele><time>2026-03-29T01:49:28.000Z</time></trkpt>
        <trkpt lat="29.150945" lon="105.38861"><ele>345.51633</ele><time>2026-03-29T01:49:33.000Z</time></trkpt>
        <trkpt lat="29.150914" lon="105.388564"><ele>344.85666</ele><time>2026-03-29T01:49:37.000Z</time></trkpt>
        <trkpt lat="29.150875" lon="105.388525"><ele>344.61978</ele><time>2026-03-29T01:49:41.000Z</time></trkpt>
        <trkpt lat="29.150825" lon="105.388493"><ele>344.99164</ele><time>2026-03-29T01:49:46.000Z</time></trkpt>
        <trkpt lat="29.150782" lon="105.388457"><ele>345.08978</ele><time>2026-03-29T01:49:51.000Z</time></trkpt>
        <trkpt lat="29.150737" lon="105.388425"><ele>344.92</ele><time>2026-03-29T01:49:56.000Z</time></trkpt>
        <trkpt lat="29.150695" lon="105.388392"><ele>344.87775</ele><time>2026-03-29T01:50:01.000Z</time></trkpt>
        <trkpt lat="29.15065" lon="105.388361"><ele>345.38898</ele><time>2026-03-29T01:50:07.000Z</time></trkpt>
        <trkpt lat="29.150617" lon="105.388319"><ele>345.0023</ele><time>2026-03-29T01:50:12.000Z</time></trkpt>
        <trkpt lat="29.150606" lon="105.38826"><ele>344.2624</ele><time>2026-03-29T01:50:17.000Z</time></trkpt>
        <trkpt lat="29.150613" lon="105.388207"><ele>343.14185</ele><time>2026-03-29T01:50:21.000Z</time></trkpt>
        <trkpt lat="29.150632" lon="105.388143"><ele>341.61414</ele><time>2026-03-29T01:50:26.000Z</time></trkpt>
        <trkpt lat="29.150656" lon="105.388085"><ele>341.26337</ele><time>2026-03-29T01:50:30.000Z</time></trkpt>
        <trkpt lat="29.150675" lon="105.388028"><ele>341.24905</ele><time>2026-03-29T01:50:34.000Z</time></trkpt>
        <trkpt lat="29.150645" lon="105.387981"><ele>340.84488</ele><time>2026-03-29T01:50:42.000Z</time></trkpt>
        <trkpt lat="29.150603" lon="105.38794"><ele>339.7494</ele><time>2026-03-29T01:50:49.000Z</time></trkpt>
        <trkpt lat="29.150571" lon="105.387902"><ele>339.113</ele><time>2026-03-29T01:50:54.000Z</time></trkpt>
        <trkpt lat="29.150528" lon="105.38787"><ele>339.4757</ele><time>2026-03-29T01:51:00.000Z</time></trkpt>
        <trkpt lat="29.150491" lon="105.387846"><ele>339.79172</ele><time>2026-03-29T01:51:04.000Z</time></trkpt>
        <trkpt lat="29.150451" lon="105.387817"><ele>339.68933</ele><time>2026-03-29T01:51:08.000Z</time></trkpt>
        <trkpt lat="29.150408" lon="105.387787"><ele>339.4681</ele><time>2026-03-29T01:51:13.000Z</time></trkpt>
        <trkpt lat="29.150361" lon="105.387756"><ele>338.43823</ele><time>2026-03-29T01:51:19.000Z</time></trkpt>
        <trkpt lat="29.150333" lon="105.387722"><ele>337.64548</ele><time>2026-03-29T01:51:23.000Z</time></trkpt>
        <trkpt lat="29.1503" lon="105.38768"><ele>336.80777</ele><time>2026-03-29T01:51:28.000Z</time></trkpt>
        <trkpt lat="29.150277" lon="105.387634"><ele>336.04037</ele><time>2026-03-29T01:51:32.000Z</time></trkpt>
        <trkpt lat="29.150261" lon="105.387581"><ele>335.3163</ele><time>2026-03-29T01:51:36.000Z</time></trkpt>
        <trkpt lat="29.150238" lon="105.387533"><ele>334.42517</ele><time>2026-03-29T01:51:40.000Z</time></trkpt>
        <trkpt lat="29.150243" lon="105.387474"><ele>331.81934</ele><time>2026-03-29T01:51:57.000Z</time></trkpt>
        <trkpt lat="29.150242" lon="105.387424"><ele>329.3588</ele><time>2026-03-29T01:52:26.000Z</time></trkpt>
        <trkpt lat="29.150282" lon="105.387402"><ele>327.42474</ele><time>2026-03-29T01:52:45.000Z</time></trkpt>
        <trkpt lat="29.150255" lon="105.387448"><ele>330.5601</ele><time>2026-03-29T01:56:34.000Z</time></trkpt>
        <trkpt lat="29.150231" lon="105.387493"><ele>331.02823</ele><time>2026-03-29T01:57:08.000Z</time></trkpt>
        <trkpt lat="29.150186" lon="105.387498"><ele>332.32486</ele><time>2026-03-29T01:57:38.000Z</time></trkpt>
        <trkpt lat="29.150147" lon="105.387467"><ele>332.5884</ele><time>2026-03-29T01:57:44.000Z</time></trkpt>
        <trkpt lat="29.150102" lon="105.387425"><ele>333.0867</ele><time>2026-03-29T01:57:50.000Z</time></trkpt>
        <trkpt lat="29.150053" lon="105.387376"><ele>333.50348</ele><time>2026-03-29T01:57:57.000Z</time></trkpt>
        <trkpt lat="29.15002" lon="105.387347"><ele>334.53674</ele><time>2026-03-29T01:58:00.000Z</time></trkpt>
        <trkpt lat="29.149967" lon="105.387307"><ele>336.081</ele><time>2026-03-29T01:58:07.000Z</time></trkpt>
        <trkpt lat="29.149933" lon="105.387259"><ele>337.16364</ele><time>2026-03-29T01:58:14.000Z</time></trkpt>
        <trkpt lat="29.149891" lon="105.387229"><ele>337.82544</ele><time>2026-03-29T01:58:20.000Z</time></trkpt>
        <trkpt lat="29.149841" lon="105.387219"><ele>338.54822</ele><time>2026-03-29T01:58:25.000Z</time></trkpt>
        <trkpt lat="29.1498" lon="105.387258"><ele>340.06265</ele><time>2026-03-29T01:58:31.000Z</time></trkpt>
        <trkpt lat="29.149776" lon="105.387315"><ele>341.69217</ele><time>2026-03-29T01:58:38.000Z</time></trkpt>
        <trkpt lat="29.149744" lon="105.387357"><ele>342.6172</ele><time>2026-03-29T01:58:44.000Z</time></trkpt>
        <trkpt lat="29.149724" lon="105.387409"><ele>344.14896</ele><time>2026-03-29T01:58:50.000Z</time></trkpt>
        <trkpt lat="29.149696" lon="105.387457"><ele>345.69223</ele><time>2026-03-29T01:58:57.000Z</time></trkpt>
        <trkpt lat="29.149665" lon="105.38749"><ele>347.3154</ele><time>2026-03-29T01:59:02.000Z</time></trkpt>
        <trkpt lat="29.149624" lon="105.387531"><ele>349.88007</ele><time>2026-03-29T01:59:14.000Z</time></trkpt>
        <trkpt lat="29.149586" lon="105.387557"><ele>352.79852</ele><time>2026-03-29T01:59:24.000Z</time></trkpt>
        <trkpt lat="29.149593" lon="105.387598"><ele>352.19745</ele><time>2026-03-29T01:59:29.000Z</time></trkpt>
        <trkpt lat="29.149555" lon="105.387622"><ele>353.2634</ele><time>2026-03-29T01:59:37.000Z</time></trkpt>
        <trkpt lat="29.149513" lon="105.38763"><ele>354.63742</ele><time>2026-03-29T01:59:41.000Z</time></trkpt>
        <trkpt lat="29.149458" lon="105.387653"><ele>356.91953</ele><time>2026-03-29T01:59:48.000Z</time></trkpt>
        <trkpt lat="29.149414" lon="105.387684"><ele>358.5706</ele><time>2026-03-29T01:59:55.000Z</time></trkpt>
        <trkpt lat="29.149379" lon="105.387704"><ele>359.93484</ele><time>2026-03-29T01:59:59.000Z</time></trkpt>
        <trkpt lat="29.149332" lon="105.387705"><ele>360.93365</ele><time>2026-03-29T02:00:04.000Z</time></trkpt>
        <trkpt lat="29.149283" lon="105.387684"><ele>361.44482</ele><time>2026-03-29T02:00:10.000Z</time></trkpt>
        <trkpt lat="29.14924" lon="105.38767"><ele>361.82422</ele><time>2026-03-29T02:00:14.000Z</time></trkpt>
        <trkpt lat="29.149187" lon="105.387636"><ele>361.13718</ele><time>2026-03-29T02:00:20.000Z</time></trkpt>
        <trkpt lat="29.149159" lon="105.387604"><ele>360.6477</ele><time>2026-03-29T02:00:23.000Z</time></trkpt>
        <trkpt lat="29.149142" lon="105.387544"><ele>360.0185</ele><time>2026-03-29T02:00:28.000Z</time></trkpt>
        <trkpt lat="29.149115" lon="105.3875"><ele>360.37518</ele><time>2026-03-29T02:00:33.000Z</time></trkpt>
        <trkpt lat="29.149075" lon="105.387502"><ele>361.84088</ele><time>2026-03-29T02:00:38.000Z</time></trkpt>
        <trkpt lat="29.149017" lon="105.387499"><ele>363.72638</ele><time>2026-03-29T02:00:47.000Z</time></trkpt>
        <trkpt lat="29.148985" lon="105.387457"><ele>364.0783</ele><time>2026-03-29T02:00:55.000Z</time></trkpt>
        <trkpt lat="29.148944" lon="105.387427"><ele>364.50684</ele><time>2026-03-29T02:01:04.000Z</time></trkpt>
        <trkpt lat="29.148896" lon="105.387413"><ele>364.84073</ele><time>2026-03-29T02:01:12.000Z</time></trkpt>
        <trkpt lat="29.148853" lon="105.387414"><ele>365.13022</ele><time>2026-03-29T02:01:17.000Z</time></trkpt>
        <trkpt lat="29.1488" lon="105.387411"><ele>366.57925</ele><time>2026-03-29T02:01:27.000Z</time></trkpt>
        <trkpt lat="29.14875" lon="105.387402"><ele>369.1355</ele><time>2026-03-29T02:01:41.000Z</time></trkpt>
        <trkpt lat="29.148706" lon="105.387416"><ele>368.82538</ele><time>2026-03-29T02:01:54.000Z</time></trkpt>
        <trkpt lat="29.14869" lon="105.387463"><ele>370.17123</ele><time>2026-03-29T02:02:01.000Z</time></trkpt>
        <trkpt lat="29.148646" lon="105.387452"><ele>372.65643</ele><time>2026-03-29T02:02:15.000Z</time></trkpt>
        <trkpt lat="29.148617" lon="105.387405"><ele>372.09796</ele><time>2026-03-29T02:02:20.000Z</time></trkpt>
        <trkpt lat="29.148563" lon="105.387379"><ele>372.38477</ele><time>2026-03-29T02:02:29.000Z</time></trkpt>
        <trkpt lat="29.148514" lon="105.387396"><ele>373.23132</ele><time>2026-03-29T02:02:36.000Z</time></trkpt>
        <trkpt lat="29.148483" lon="105.387447"><ele>374.59283</ele><time>2026-03-29T02:02:45.000Z</time></trkpt>
        <trkpt lat="29.148451" lon="105.387488"><ele>378.67993</ele><time>2026-03-29T02:02:54.000Z</time></trkpt>
        <trkpt lat="29.14843" lon="105.387531"><ele>380.6728</ele><time>2026-03-29T02:02:59.000Z</time></trkpt>
        <trkpt lat="29.148392" lon="105.387507"><ele>379.50204</ele><time>2026-03-29T02:03:10.000Z</time></trkpt>
        <trkpt lat="29.148353" lon="105.387517"><ele>376.52533</ele><time>2026-03-29T02:03:16.000Z</time></trkpt>
        <trkpt lat="29.148327" lon="105.38757"><ele>382.67398</ele><time>2026-03-29T02:03:29.000Z</time></trkpt>
        <trkpt lat="29.148291" lon="105.387608"><ele>385.92093</ele><time>2026-03-29T02:03:43.000Z</time></trkpt>
        <trkpt lat="29.148253" lon="105.387639"><ele>387.48154</ele><time>2026-03-29T02:03:58.000Z</time></trkpt>
        <trkpt lat="29.148217" lon="105.387646"><ele>387.13217</ele><time>2026-03-29T02:04:02.000Z</time></trkpt>
        <trkpt lat="29.148203" lon="105.387701"><ele>388.11954</ele><time>2026-03-29T02:04:09.000Z</time></trkpt>
        <trkpt lat="29.148203" lon="105.387755"><ele>388.87912</ele><time>2026-03-29T02:04:13.000Z</time></trkpt>
        <trkpt lat="29.148239" lon="105.387801"><ele>391.5063</ele><time>2026-03-29T02:04:19.000Z</time></trkpt>
        <trkpt lat="29.148275" lon="105.387851"><ele>393.56387</ele><time>2026-03-29T02:04:24.000Z</time></trkpt>
        <trkpt lat="29.148317" lon="105.387901"><ele>395.47327</ele><time>2026-03-29T02:04:32.000Z</time></trkpt>
        <trkpt lat="29.148339" lon="105.387958"><ele>397.0665</ele><time>2026-03-29T02:04:37.000Z</time></trkpt>
        <trkpt lat="29.148372" lon="105.387994"><ele>398.39236</ele><time>2026-03-29T02:04:41.000Z</time></trkpt>
        <trkpt lat="29.148399" lon="105.388051"><ele>399.4579</ele><time>2026-03-29T02:04:50.000Z</time></trkpt>
        <trkpt lat="29.148428" lon="105.38809"><ele>398.24496</ele><time>2026-03-29T02:05:11.000Z</time></trkpt>
        <trkpt lat="29.148425" lon="105.388142"><ele>401.66653</ele><time>2026-03-29T02:06:54.000Z</time></trkpt>
        <trkpt lat="29.14845" lon="105.388182"><ele>401.82095</ele><time>2026-03-29T02:07:05.000Z</time></trkpt>
        <trkpt lat="29.148451" lon="105.388229"><ele>401.64258</ele><time>2026-03-29T02:07:11.000Z</time></trkpt>
        <trkpt lat="29.148446" lon="105.388287"><ele>403.1247</ele><time>2026-03-29T02:07:16.000Z</time></trkpt>
        <trkpt lat="29.14844" lon="105.388344"><ele>404.65344</ele><time>2026-03-29T02:07:21.000Z</time></trkpt>
        <trkpt lat="29.14841" lon="105.388402"><ele>404.73438</ele><time>2026-03-29T02:07:29.000Z</time></trkpt>
        <trkpt lat="29.148387" lon="105.388447"><ele>404.59314</ele><time>2026-03-29T02:07:37.000Z</time></trkpt>
        <trkpt lat="29.148342" lon="105.388472"><ele>402.42538</ele><time>2026-03-29T02:07:46.000Z</time></trkpt>
        <trkpt lat="29.148296" lon="105.388491"><ele>398.38715</ele><time>2026-03-29T02:07:55.000Z</time></trkpt>
        <trkpt lat="29.148269" lon="105.388531"><ele>398.85764</ele><time>2026-03-29T02:08:02.000Z</time></trkpt>
        <trkpt lat="29.14823" lon="105.388552"><ele>399.34448</ele><time>2026-03-29T02:08:09.000Z</time></trkpt>
        <trkpt lat="29.148179" lon="105.388534"><ele>397.6524</ele><time>2026-03-29T02:08:19.000Z</time></trkpt>
        <trkpt lat="29.148136" lon="105.388515"><ele>395.77383</ele><time>2026-03-29T02:08:26.000Z</time></trkpt>
        <trkpt lat="29.148082" lon="105.388505"><ele>393.29254</ele><time>2026-03-29T02:08:35.000Z</time></trkpt>
        <trkpt lat="29.148033" lon="105.38851"><ele>390.11685</ele><time>2026-03-29T02:08:43.000Z</time></trkpt>
        <trkpt lat="29.147987" lon="105.388529"><ele>387.86853</ele><time>2026-03-29T02:08:51.000Z</time></trkpt>
        <trkpt lat="29.147946" lon="105.388544"><ele>386.42184</ele><time>2026-03-29T02:08:56.000Z</time></trkpt>
        <trkpt lat="29.147897" lon="105.388552"><ele>385.40115</ele><time>2026-03-29T02:09:02.000Z</time></trkpt>
        <trkpt lat="29.147843" lon="105.388527"><ele>384.50177</ele><time>2026-03-29T02:09:12.000Z</time></trkpt>
        <trkpt lat="29.147797" lon="105.388496"><ele>382.24017</ele><time>2026-03-29T02:09:22.000Z</time></trkpt>
        <trkpt lat="29.147747" lon="105.388492"><ele>382.005</ele><time>2026-03-29T02:09:35.000Z</time></trkpt>
        <trkpt lat="29.147705" lon="105.388507"><ele>383.19763</ele><time>2026-03-29T02:09:42.000Z</time></trkpt>
        <trkpt lat="29.147654" lon="105.388486"><ele>383.9072</ele><time>2026-03-29T02:09:56.000Z</time></trkpt>
        <trkpt lat="29.147609" lon="105.388506"><ele>386.24695</ele><time>2026-03-29T02:10:13.000Z</time></trkpt>
        <trkpt lat="29.14757" lon="105.388524"><ele>388.05267</ele><time>2026-03-29T02:10:18.000Z</time></trkpt>
        <trkpt lat="29.14752" lon="105.388549"><ele>390.2721</ele><time>2026-03-29T02:10:38.000Z</time></trkpt>
        <trkpt lat="29.147477" lon="105.388565"><ele>390.37292</ele><time>2026-03-29T02:10:52.000Z</time></trkpt>
        <trkpt lat="29.14744" lon="105.388606"><ele>391.66568</ele><time>2026-03-29T02:10:59.000Z</time></trkpt>
        <trkpt lat="29.147412" lon="105.388656"><ele>394.06964</ele><time>2026-03-29T02:11:11.000Z</time></trkpt>
        <trkpt lat="29.147419" lon="105.388714"><ele>392.16162</ele><time>2026-03-29T02:12:01.000Z</time></trkpt>
        <trkpt lat="29.147433" lon="105.38876"><ele>391.88272</ele><time>2026-03-29T02:12:10.000Z</time></trkpt>
        <trkpt lat="29.147412" lon="105.388811"><ele>391.86655</ele><time>2026-03-29T02:12:19.000Z</time></trkpt>
        <trkpt lat="29.147387" lon="105.388857"><ele>391.21158</ele><time>2026-03-29T02:12:26.000Z</time></trkpt>
        <trkpt lat="29.147345" lon="105.388893"><ele>386.22275</ele><time>2026-03-29T02:12:42.000Z</time></trkpt>
        <trkpt lat="29.147297" lon="105.388907"><ele>395.86407</ele><time>2026-03-29T02:13:10.000Z</time></trkpt>
        <trkpt lat="29.147256" lon="105.388882"><ele>397.17612</ele><time>2026-03-29T02:13:23.000Z</time></trkpt>
        <trkpt lat="29.147239" lon="105.388832"><ele>399.37973</ele><time>2026-03-29T02:13:29.000Z</time></trkpt>
        <trkpt lat="29.147193" lon="105.388839"><ele>403.86713</ele><time>2026-03-29T02:13:40.000Z</time></trkpt>
        <trkpt lat="29.147182" lon="105.388894"><ele>407.53357</ele><time>2026-03-29T02:13:46.000Z</time></trkpt>
        <trkpt lat="29.147138" lon="105.388898"><ele>408.3881</ele><time>2026-03-29T02:14:10.000Z</time></trkpt>
        <trkpt lat="29.14712" lon="105.388941"><ele>408.90588</ele><time>2026-03-29T02:14:18.000Z</time></trkpt>
        <trkpt lat="29.14707" lon="105.388986"><ele>411.70306</ele><time>2026-03-29T02:14:56.000Z</time></trkpt>
        <trkpt lat="29.147066" lon="105.389042"><ele>413.51663</ele><time>2026-03-29T02:15:15.000Z</time></trkpt>
        <trkpt lat="29.147042" lon="105.389081"><ele>414.6854</ele><time>2026-03-29T02:15:21.000Z</time></trkpt>
        <trkpt lat="29.146994" lon="105.389052"><ele>413.62827</ele><time>2026-03-29T02:15:34.000Z</time></trkpt>
        <trkpt lat="29.146972" lon="105.388985"><ele>418.31552</ele><time>2026-03-29T02:15:44.000Z</time></trkpt>
        <trkpt lat="29.146932" lon="105.389012"><ele>418.9104</ele><time>2026-03-29T02:15:56.000Z</time></trkpt>
        <trkpt lat="29.146886" lon="105.389038"><ele>419.3599</ele><time>2026-03-29T02:16:07.000Z</time></trkpt>
        <trkpt lat="29.146843" lon="105.389058"><ele>418.3228</ele><time>2026-03-29T02:16:35.000Z</time></trkpt>
        <trkpt lat="29.146817" lon="105.389017"><ele>416.6282</ele><time>2026-03-29T02:16:53.000Z</time></trkpt>
        <trkpt lat="29.14684" lon="105.389063"><ele>416.59763</ele><time>2026-03-29T02:17:52.000Z</time></trkpt>
        <trkpt lat="29.146865" lon="105.389102"><ele>416.42816</ele><time>2026-03-29T02:17:57.000Z</time></trkpt>
        <trkpt lat="29.146857" lon="105.38906"><ele>416.6632</ele><time>2026-03-29T02:18:09.000Z</time></trkpt>
        <trkpt lat="29.146818" lon="105.389025"><ele>417.93665</ele><time>2026-03-29T02:18:17.000Z</time></trkpt>
        <trkpt lat="29.146788" lon="105.388983"><ele>418.2782</ele><time>2026-03-29T02:18:22.000Z</time></trkpt>
        <trkpt lat="29.146765" lon="105.388931"><ele>417.87607</ele><time>2026-03-29T02:18:27.000Z</time></trkpt>
        <trkpt lat="29.14674" lon="105.388879"><ele>417.6011</ele><time>2026-03-29T02:18:32.000Z</time></trkpt>
        <trkpt lat="29.146722" lon="105.388822"><ele>418.75595</ele><time>2026-03-29T02:18:38.000Z</time></trkpt>
        <trkpt lat="29.146705" lon="105.388768"><ele>420.0674</ele><time>2026-03-29T02:18:44.000Z</time></trkpt>
        <trkpt lat="29.146691" lon="105.388724"><ele>421.42905</ele><time>2026-03-29T02:18:48.000Z</time></trkpt>
        <trkpt lat="29.146679" lon="105.388671"><ele>422.6783</ele><time>2026-03-29T02:18:52.000Z</time></trkpt>
        <trkpt lat="29.146667" lon="105.388618"><ele>424.01663</ele><time>2026-03-29T02:18:56.000Z</time></trkpt>
        <trkpt lat="29.146652" lon="105.388567"><ele>424.8556</ele><time>2026-03-29T02:19:00.000Z</time></trkpt>
        <trkpt lat="29.146622" lon="105.388518"><ele>425.12283</ele><time>2026-03-29T02:19:05.000Z</time></trkpt>
        <trkpt lat="29.146576" lon="105.38849"><ele>423.35464</ele><time>2026-03-29T02:19:10.000Z</time></trkpt>
        <trkpt lat="29.146531" lon="105.388456"><ele>422.31027</ele><time>2026-03-29T02:19:15.000Z</time></trkpt>
        <trkpt lat="29.146495" lon="105.388406"><ele>421.66574</ele><time>2026-03-29T02:19:21.000Z</time></trkpt>
        <trkpt lat="29.146469" lon="105.388352"><ele>420.85452</ele><time>2026-03-29T02:19:27.000Z</time></trkpt>
        <trkpt lat="29.146428" lon="105.388319"><ele>420.01932</ele><time>2026-03-29T02:19:34.000Z</time></trkpt>
        <trkpt lat="29.146378" lon="105.388317"><ele>417.57016</ele><time>2026-03-29T02:19:50.000Z</time></trkpt>
        <trkpt lat="29.146376" lon="105.388275"><ele>417.2351</ele><time>2026-03-29T02:19:56.000Z</time></trkpt>
        <trkpt lat="29.146345" lon="105.38824"><ele>416.80658</ele><time>2026-03-29T02:20:01.000Z</time></trkpt>
        <trkpt lat="29.146295" lon="105.388229"><ele>416.4582</ele><time>2026-03-29T02:20:06.000Z</time></trkpt>
        <trkpt lat="29.146246" lon="105.388208"><ele>415.47247</ele><time>2026-03-29T02:20:11.000Z</time></trkpt>
        <trkpt lat="29.146211" lon="105.388168"><ele>414.54465</ele><time>2026-03-29T02:20:16.000Z</time></trkpt>
        <trkpt lat="29.146172" lon="105.388129"><ele>413.53748</ele><time>2026-03-29T02:20:21.000Z</time></trkpt>
        <trkpt lat="29.146123" lon="105.388114"><ele>413.66135</ele><time>2026-03-29T02:20:26.000Z</time></trkpt>
        <trkpt lat="29.146079" lon="105.388109"><ele>413.6383</ele><time>2026-03-29T02:20:30.000Z</time></trkpt>
        <trkpt lat="29.146024" lon="105.388093"><ele>413.40253</ele><time>2026-03-29T02:20:35.000Z</time></trkpt>
        <trkpt lat="29.145979" lon="105.388077"><ele>413.142</ele><time>2026-03-29T02:20:39.000Z</time></trkpt>
        <trkpt lat="29.14593" lon="105.388069"><ele>413.12894</ele><time>2026-03-29T02:20:43.000Z</time></trkpt>
        <trkpt lat="29.145895" lon="105.388096"><ele>413.0072</ele><time>2026-03-29T02:20:47.000Z</time></trkpt>
        <trkpt lat="29.145857" lon="105.38814"><ele>412.983</ele><time>2026-03-29T02:20:52.000Z</time></trkpt>
        <trkpt lat="29.145822" lon="105.388189"><ele>413.41776</ele><time>2026-03-29T02:21:01.000Z</time></trkpt>
        <trkpt lat="29.14579" lon="105.388217"><ele>413.57925</ele><time>2026-03-29T02:21:05.000Z</time></trkpt>
        <trkpt lat="29.145754" lon="105.38826"><ele>414.2089</ele><time>2026-03-29T02:21:11.000Z</time></trkpt>
        <trkpt lat="29.145724" lon="105.388303"><ele>414.16208</ele><time>2026-03-29T02:21:16.000Z</time></trkpt>
        <trkpt lat="29.14568" lon="105.388333"><ele>415.88806</ele><time>2026-03-29T02:21:23.000Z</time></trkpt>
        <trkpt lat="29.145659" lon="105.388372"><ele>417.3888</ele><time>2026-03-29T02:21:28.000Z</time></trkpt>
        <trkpt lat="29.145623" lon="105.388405"><ele>418.7308</ele><time>2026-03-29T02:21:34.000Z</time></trkpt>
        <trkpt lat="29.14558" lon="105.388443"><ele>421.34854</ele><time>2026-03-29T02:21:42.000Z</time></trkpt>
        <trkpt lat="29.145562" lon="105.388495"><ele>424.50357</ele><time>2026-03-29T02:21:50.000Z</time></trkpt>
        <trkpt lat="29.145522" lon="105.388525"><ele>426.7449</ele><time>2026-03-29T02:21:59.000Z</time></trkpt>
        <trkpt lat="29.145482" lon="105.38852"><ele>427.84302</ele><time>2026-03-29T02:22:04.000Z</time></trkpt>
        <trkpt lat="29.145431" lon="105.388513"><ele>429.3854</ele><time>2026-03-29T02:22:10.000Z</time></trkpt>
        <trkpt lat="29.145384" lon="105.388534"><ele>429.6757</ele><time>2026-03-29T02:22:17.000Z</time></trkpt>
        <trkpt lat="29.145341" lon="105.388526"><ele>430.3137</ele><time>2026-03-29T02:22:23.000Z</time></trkpt>
        <trkpt lat="29.145292" lon="105.388534"><ele>430.49448</ele><time>2026-03-29T02:22:29.000Z</time></trkpt>
        <trkpt lat="29.145246" lon="105.388545"><ele>430.81845</ele><time>2026-03-29T02:22:34.000Z</time></trkpt>
        <trkpt lat="29.145199" lon="105.388548"><ele>431.29395</ele><time>2026-03-29T02:22:39.000Z</time></trkpt>
        <trkpt lat="29.145155" lon="105.388546"><ele>431.17365</ele><time>2026-03-29T02:22:43.000Z</time></trkpt>
        <trkpt lat="29.145099" lon="105.388537"><ele>433.24396</ele><time>2026-03-29T02:22:50.000Z</time></trkpt>
        <trkpt lat="29.145058" lon="105.388529"><ele>434.3213</ele><time>2026-03-29T02:22:55.000Z</time></trkpt>
        <trkpt lat="29.145006" lon="105.38852"><ele>434.58344</ele><time>2026-03-29T02:23:01.000Z</time></trkpt>
        <trkpt lat="29.144953" lon="105.388513"><ele>435.066</ele><time>2026-03-29T02:23:07.000Z</time></trkpt>
        <trkpt lat="29.144903" lon="105.388507"><ele>434.83206</ele><time>2026-03-29T02:23:12.000Z</time></trkpt>
        <trkpt lat="29.144854" lon="105.388498"><ele>433.88428</ele><time>2026-03-29T02:23:17.000Z</time></trkpt>
        <trkpt lat="29.144807" lon="105.388487"><ele>434.02213</ele><time>2026-03-29T02:23:22.000Z</time></trkpt>
        <trkpt lat="29.144752" lon="105.388489"><ele>434.20157</ele><time>2026-03-29T02:23:28.000Z</time></trkpt>
        <trkpt lat="29.144711" lon="105.388511"><ele>434.5822</ele><time>2026-03-29T02:23:33.000Z</time></trkpt>
        <trkpt lat="29.144669" lon="105.388536"><ele>434.43643</ele><time>2026-03-29T02:23:38.000Z</time></trkpt>
        <trkpt lat="29.144639" lon="105.388579"><ele>435.02762</ele><time>2026-03-29T02:23:43.000Z</time></trkpt>
        <trkpt lat="29.144603" lon="105.388625"><ele>434.71658</ele><time>2026-03-29T02:23:48.000Z</time></trkpt>
        <trkpt lat="29.144553" lon="105.388654"><ele>435.17377</ele><time>2026-03-29T02:23:54.000Z</time></trkpt>
        <trkpt lat="29.144507" lon="105.388652"><ele>435.75742</ele><time>2026-03-29T02:23:59.000Z</time></trkpt>
        <trkpt lat="29.144464" lon="105.388654"><ele>435.50845</ele><time>2026-03-29T02:24:03.000Z</time></trkpt>
        <trkpt lat="29.14441" lon="105.38867"><ele>434.66916</ele><time>2026-03-29T02:24:09.000Z</time></trkpt>
        <trkpt lat="29.144372" lon="105.388701"><ele>434.46704</ele><time>2026-03-29T02:24:15.000Z</time></trkpt>
        <trkpt lat="29.144339" lon="105.388741"><ele>435.52344</ele><time>2026-03-29T02:24:21.000Z</time></trkpt>
        <trkpt lat="29.144298" lon="105.388766"><ele>437.18027</ele><time>2026-03-29T02:24:27.000Z</time></trkpt>
        <trkpt lat="29.144248" lon="105.388781"><ele>438.4678</ele><time>2026-03-29T02:24:33.000Z</time></trkpt>
        <trkpt lat="29.144195" lon="105.388791"><ele>440.02338</ele><time>2026-03-29T02:24:39.000Z</time></trkpt>
        <trkpt lat="29.144147" lon="105.388792"><ele>440.51294</ele><time>2026-03-29T02:24:45.000Z</time></trkpt>
        <trkpt lat="29.144104" lon="105.388774"><ele>440.66934</ele><time>2026-03-29T02:24:51.000Z</time></trkpt>
        <trkpt lat="29.144058" lon="105.38876"><ele>441.2052</ele><time>2026-03-29T02:24:57.000Z</time></trkpt>
        <trkpt lat="29.144019" lon="105.388733"><ele>441.46188</ele><time>2026-03-29T02:25:02.000Z</time></trkpt>
        <trkpt lat="29.143981" lon="105.388699"><ele>441.43494</ele><time>2026-03-29T02:25:07.000Z</time></trkpt>
        <trkpt lat="29.143943" lon="105.388662"><ele>441.3131</ele><time>2026-03-29T02:25:12.000Z</time></trkpt>
        <trkpt lat="29.143911" lon="105.388619"><ele>441.01938</ele><time>2026-03-29T02:25:17.000Z</time></trkpt>
        <trkpt lat="29.143891" lon="105.388565"><ele>440.3866</ele><time>2026-03-29T02:25:23.000Z</time></trkpt>
        <trkpt lat="29.14386" lon="105.388516"><ele>439.0606</ele><time>2026-03-29T02:25:30.000Z</time></trkpt>
        <trkpt lat="29.14383" lon="105.388482"><ele>439.11084</ele><time>2026-03-29T02:25:35.000Z</time></trkpt>
        <trkpt lat="29.143785" lon="105.388447"><ele>438.44022</ele><time>2026-03-29T02:25:41.000Z</time></trkpt>
        <trkpt lat="29.143734" lon="105.388419"><ele>437.77682</ele><time>2026-03-29T02:25:49.000Z</time></trkpt>
        <trkpt lat="29.14369" lon="105.388416"><ele>437.31274</ele><time>2026-03-29T02:25:55.000Z</time></trkpt>
        <trkpt lat="29.143643" lon="105.388397"><ele>435.89044</ele><time>2026-03-29T02:26:05.000Z</time></trkpt>
        <trkpt lat="29.143593" lon="105.38839"><ele>435.10022</ele><time>2026-03-29T02:26:11.000Z</time></trkpt>
        <trkpt lat="29.143542" lon="105.388408"><ele>434.94254</ele><time>2026-03-29T02:26:41.000Z</time></trkpt>
        <trkpt lat="29.143515" lon="105.388449"><ele>435.4942</ele><time>2026-03-29T02:27:01.000Z</time></trkpt>
        <trkpt lat="29.143504" lon="105.388497"><ele>436.62933</ele><time>2026-03-29T02:27:07.000Z</time></trkpt>
        <trkpt lat="29.143489" lon="105.388547"><ele>438.26004</ele><time>2026-03-29T02:27:12.000Z</time></trkpt>
        <trkpt lat="29.143493" lon="105.388605"><ele>440.50476</ele><time>2026-03-29T02:27:18.000Z</time></trkpt>
        <trkpt lat="29.14349" lon="105.388661"><ele>442.53012</ele><time>2026-03-29T02:27:24.000Z</time></trkpt>
        <trkpt lat="29.143482" lon="105.388712"><ele>443.9811</ele><time>2026-03-29T02:27:29.000Z</time></trkpt>
        <trkpt lat="29.143476" lon="105.388784"><ele>445.75705</ele><time>2026-03-29T02:27:37.000Z</time></trkpt>
        <trkpt lat="29.143457" lon="105.388836"><ele>446.63104</ele><time>2026-03-29T02:27:43.000Z</time></trkpt>
        <trkpt lat="29.143445" lon="105.388891"><ele>447.36575</ele><time>2026-03-29T02:27:48.000Z</time></trkpt>
        <trkpt lat="29.143437" lon="105.388956"><ele>448.08755</ele><time>2026-03-29T02:27:54.000Z</time></trkpt>
        <trkpt lat="29.143422" lon="105.38901"><ele>449.09064</ele><time>2026-03-29T02:27:59.000Z</time></trkpt>
        <trkpt lat="29.143392" lon="105.38906"><ele>450.1022</ele><time>2026-03-29T02:28:05.000Z</time></trkpt>
        <trkpt lat="29.143368" lon="105.38911"><ele>451.67953</ele><time>2026-03-29T02:28:11.000Z</time></trkpt>
        <trkpt lat="29.143342" lon="105.389159"><ele>453.7896</ele><time>2026-03-29T02:28:19.000Z</time></trkpt>
        <trkpt lat="29.143309" lon="105.389201"><ele>456.035</ele><time>2026-03-29T02:28:27.000Z</time></trkpt>
        <trkpt lat="29.143277" lon="105.389241"><ele>457.98312</ele><time>2026-03-29T02:28:34.000Z</time></trkpt>
        <trkpt lat="29.143258" lon="105.389303"><ele>459.74756</ele><time>2026-03-29T02:28:43.000Z</time></trkpt>
        <trkpt lat="29.143218" lon="105.389326"><ele>462.16217</ele><time>2026-03-29T02:28:54.000Z</time></trkpt>
        <trkpt lat="29.143205" lon="105.389375"><ele>463.71103</ele><time>2026-03-29T02:29:05.000Z</time></trkpt>
        <trkpt lat="29.143166" lon="105.389381"><ele>463.9947</ele><time>2026-03-29T02:29:11.000Z</time></trkpt>
        <trkpt lat="29.14315" lon="105.389429"><ele>464.95908</ele><time>2026-03-29T02:29:15.000Z</time></trkpt>
        <trkpt lat="29.143125" lon="105.389482"><ele>465.88754</ele><time>2026-03-29T02:29:20.000Z</time></trkpt>
        <trkpt lat="29.143088" lon="105.389512"><ele>466.90323</ele><time>2026-03-29T02:29:25.000Z</time></trkpt>
      </trkseg>
  </trk>
</gpx>